<?xml version='1.0' encoding='UTF-8'?><gpx version="1.1" creator="JPX - https://github.com/jenetics/jpx" xmlns="http://www.topografix.com/GPX/1/1"><trk><trkseg><trkpt lat="37.49374800830846" lon="14.13445528597956"><ele>405.1428571428571</ele><time>2026-04-15T10:02:14.001Z</time></trkpt><trkpt lat="37.49378934569769" lon="14.134524786366448"><ele>406.2857142857143</ele><time>2026-04-15T10:02:22.001Z</time></trkpt><trkpt lat="37.49382398039369" lon="14.134591951365246"><ele>407.42857142857144</ele><time>2026-04-15T10:02:28.001Z</time></trkpt><trkpt lat="37.4938483133531" lon="14.134676699862357"><ele>408.57142857142856</ele><time>2026-04-15T10:02:34.001Z</time></trkpt><trkpt lat="37.493873615073866" lon="14.134750210611092"><ele>409.7142857142857</ele><time>2026-04-15T10:02:39.001Z</time></trkpt><trkpt lat="37.49392771340699" lon="14.134814104406876"><ele>410.85714285714283</ele><time>2026-04-15T10:02:45.001Z</time></trkpt><trkpt lat="37.4939739451066" lon="14.134883885421704"><ele>412.0</ele><time>2026-04-15T10:02:50.001Z</time></trkpt><trkpt lat="37.49402787925841" lon="14.134935800830114"><ele>411.99999999999994</ele><time>2026-04-15T10:02:55.001Z</time></trkpt><trkpt lat="37.49407580120426" lon="14.135003458069301"><ele>412.0</ele><time>2026-04-15T10:03:01.001Z</time></trkpt><trkpt lat="37.494096514265784" lon="14.135081156537106"><ele>412.0</ele><time>2026-04-15T10:03:11.001Z</time></trkpt><trkpt lat="37.494123010497376" lon="14.135168393795517"><ele>412.0</ele><time>2026-04-15T10:03:16.001Z</time></trkpt><trkpt lat="37.49414923723719" lon="14.135253000346937"><ele>412.0</ele><time>2026-04-15T10:03:24.002Z</time></trkpt><trkpt lat="37.4941762315829" lon="14.135337415940796"><ele>411.99999999999994</ele><time>2026-04-15T10:03:30.002Z</time></trkpt><trkpt lat="37.49423501781722" lon="14.13538119797291"><ele>412.0</ele><time>2026-04-15T10:03:36.002Z</time></trkpt><trkpt lat="37.49427268656489" lon="14.135463000769693"><ele>411.99999999999994</ele><time>2026-04-15T10:03:42.002Z</time></trkpt><trkpt lat="37.4943133341815" lon="14.135542542556882"><ele>412.0</ele><time>2026-04-15T10:03:49.002Z</time></trkpt><trkpt lat="37.49437112083604" lon="14.135587627893253"><ele>412.0</ele><time>2026-04-15T10:03:56.002Z</time></trkpt><trkpt lat="37.494377084133866" lon="14.135507857373566"><ele>412.0</ele><time>2026-04-15T10:04:07.002Z</time></trkpt><trkpt lat="37.49432556409598" lon="14.135445113313118"><ele>412.0</ele><time>2026-04-15T10:04:14.002Z</time></trkpt><trkpt lat="37.49427203296289" lon="14.135372596380716"><ele>411.99999999999994</ele><time>2026-04-15T10:04:21.001Z</time></trkpt><trkpt lat="37.4942254945387" lon="14.13531054220998"><ele>412.0</ele><time>2026-04-15T10:04:26.001Z</time></trkpt><trkpt lat="37.494187107520595" lon="14.1352362348652"><ele>411.99999999999994</ele><time>2026-04-15T10:04:33.001Z</time></trkpt><trkpt lat="37.49416066630869" lon="14.135162661288149"><ele>412.0</ele><time>2026-04-15T10:04:39.001Z</time></trkpt><trkpt lat="37.49412810478448" lon="14.135073902394579"><ele>412.0</ele><time>2026-04-15T10:04:45.001Z</time></trkpt><trkpt lat="37.49410460947204" lon="14.134986775531056"><ele>412.0</ele><time>2026-04-15T10:04:51.001Z</time></trkpt><trkpt lat="37.49408044319558" lon="14.134909210575938"><ele>412.0</ele><time>2026-04-15T10:04:56.001Z</time></trkpt><trkpt lat="37.49415083129981" lon="14.134903573294212"><ele>411.99999999999994</ele><time>2026-04-15T10:05:00.001Z</time></trkpt><trkpt lat="37.49420954646772" lon="14.134954527917627"><ele>412.0</ele><time>2026-04-15T10:05:05.001Z</time></trkpt><trkpt lat="37.49424827876049" lon="14.135029220365253"><ele>411.99999999999994</ele><time>2026-04-15T10:05:10.001Z</time></trkpt><trkpt lat="37.494303221635704" lon="14.135090049340802"><ele>412.0</ele><time>2026-04-15T10:05:16.001Z</time></trkpt><trkpt lat="37.494334874628116" lon="14.135165215237421"><ele>412.0</ele><time>2026-04-15T10:05:23.001Z</time></trkpt><trkpt lat="37.49436811223833" lon="14.135240796746501"><ele>412.0</ele><time>2026-04-15T10:05:30.001Z</time></trkpt><trkpt lat="37.494417823265806" lon="14.135296529346782"><ele>412.0</ele><time>2026-04-15T10:05:38.002Z</time></trkpt><trkpt lat="37.494452126865895" lon="14.135221117490692"><ele>411.99999999999994</ele><time>2026-04-15T10:05:49.002Z</time></trkpt><trkpt lat="37.494409063857" lon="14.135143672570111"><ele>412.0</ele><time>2026-04-15T10:05:57.002Z</time></trkpt><trkpt lat="37.494385189240724" lon="14.135065482058721"><ele>411.99999999999994</ele><time>2026-04-15T10:06:05.002Z</time></trkpt><trkpt lat="37.49434706020105" lon="14.134992401424455"><ele>412.0</ele><time>2026-04-15T10:06:11.002Z</time></trkpt><trkpt lat="37.49431927510751" lon="14.134912461557757"><ele>412.0</ele><time>2026-04-15T10:06:18.002Z</time></trkpt><trkpt lat="37.494291908723525" lon="14.134836801966669"><ele>412.0</ele><time>2026-04-15T10:06:23.002Z</time></trkpt><trkpt lat="37.49429425250204" lon="14.13474732156537"><ele>412.0</ele><time>2026-04-15T10:06:29.002Z</time></trkpt><trkpt lat="37.49429202821173" lon="14.134662195145177"><ele>411.99999999999994</ele><time>2026-04-15T10:06:36.001Z</time></trkpt><trkpt lat="37.49426602869765" lon="14.134577578715707"><ele>412.0</ele><time>2026-04-15T10:06:43.001Z</time></trkpt><trkpt lat="37.494242396656716" lon="14.134502210672451"><ele>413.57142857142856</ele><time>2026-04-15T10:06:51.001Z</time></trkpt><trkpt lat="37.49425130524091" lon="14.134418076781754"><ele>415.1428571428571</ele><time>2026-04-15T10:06:58.001Z</time></trkpt><trkpt lat="37.49430303333662" lon="14.13436859895627"><ele>416.71428571428567</ele><time>2026-04-15T10:07:07.001Z</time></trkpt><trkpt lat="37.49437939972793" lon="14.134350320055372"><ele>418.2857142857143</ele><time>2026-04-15T10:07:18.001Z</time></trkpt><trkpt lat="37.494440988282285" lon="14.134314531072693"><ele>419.8571428571429</ele><time>2026-04-15T10:07:22.001Z</time></trkpt><trkpt lat="37.49450184179013" lon="14.134249149934742"><ele>421.4285714285714</ele><time>2026-04-15T10:07:29.001Z</time></trkpt><trkpt lat="37.49454911436461" lon="14.134193198318147"><ele>423.0</ele><time>2026-04-15T10:07:35.001Z</time></trkpt><trkpt lat="37.49462618245783" lon="14.134199856341066"><ele>426.2857142857143</ele><time>2026-04-15T10:07:43.001Z</time></trkpt><trkpt lat="37.494682628844274" lon="14.13424227109581"><ele>429.5714285714286</ele><time>2026-04-15T10:07:48.001Z</time></trkpt><trkpt lat="37.49473022469847" lon="14.134300020162726"><ele>432.8571428571429</ele><time>2026-04-15T10:07:54.001Z</time></trkpt><trkpt lat="37.494765275374306" lon="14.134369649254149"><ele>436.1428571428571</ele><time>2026-04-15T10:07:59.002Z</time></trkpt><trkpt lat="37.49479439735839" lon="14.134442429957247"><ele>439.42857142857144</ele><time>2026-04-15T10:08:05.002Z</time></trkpt><trkpt lat="37.49483163040456" lon="14.134515559736194"><ele>442.7142857142857</ele><time>2026-04-15T10:08:10.002Z</time></trkpt><trkpt lat="37.49488778862788" lon="14.134569183597481"><ele>446.0</ele><time>2026-04-15T10:08:15.002Z</time></trkpt><trkpt lat="37.49490805934595" lon="14.134650032914191"><ele>446.0</ele><time>2026-04-15T10:08:20.002Z</time></trkpt><trkpt lat="37.49493197854734" lon="14.134725648621922"><ele>446.0</ele><time>2026-04-15T10:08:27.002Z</time></trkpt><trkpt lat="37.49492229847816" lon="14.13480715148217"><ele>446.0</ele><time>2026-04-15T10:08:32.001Z</time></trkpt><trkpt lat="37.49486366611438" lon="14.1348536139217"><ele>446.0</ele><time>2026-04-15T10:08:36.001Z</time></trkpt><trkpt lat="37.494849368235315" lon="14.1349320770596"><ele>446.0</ele><time>2026-04-15T10:08:43.001Z</time></trkpt><trkpt lat="37.494900131497054" lon="14.134995356999983"><ele>446.0</ele><time>2026-04-15T10:08:49.001Z</time></trkpt><trkpt lat="37.49494492191421" lon="14.135067387523003"><ele>446.0</ele><time>2026-04-15T10:08:55.001Z</time></trkpt><trkpt lat="37.494981562225156" lon="14.135132353406254"><ele>444.2857142857143</ele><time>2026-04-15T10:09:01.001Z</time></trkpt><trkpt lat="37.49495365405622" lon="14.135204116615046"><ele>442.57142857142856</ele><time>2026-04-15T10:09:06.001Z</time></trkpt><trkpt lat="37.49490332414714" lon="14.135257879273704"><ele>440.8571428571429</ele><time>2026-04-15T10:09:10.001Z</time></trkpt><trkpt lat="37.49483568190934" lon="14.135279195214814"><ele>439.1428571428571</ele><time>2026-04-15T10:09:30.001Z</time></trkpt><trkpt lat="37.49477269987508" lon="14.13531613554218"><ele>437.42857142857144</ele><time>2026-04-15T10:09:42.001Z</time></trkpt><trkpt lat="37.49470644787601" lon="14.135333298061015"><ele>435.7142857142857</ele><time>2026-04-15T10:09:46.001Z</time></trkpt><trkpt lat="37.49465676338294" lon="14.135391969959455"><ele>434.0</ele><time>2026-04-15T10:09:53.001Z</time></trkpt><trkpt lat="37.494611276671726" lon="14.135457098174589"><ele>434.0</ele><time>2026-04-15T10:09:59.001Z</time></trkpt><trkpt lat="37.49462669813576" lon="14.135537207078054"><ele>434.0</ele><time>2026-04-15T10:10:06.001Z</time></trkpt><trkpt lat="37.49468786418235" lon="14.135577313009554"><ele>434.0</ele><time>2026-04-15T10:10:12.001Z</time></trkpt><trkpt lat="37.49472242714698" lon="14.135644469750314"><ele>434.0</ele><time>2026-04-15T10:10:19.001Z</time></trkpt><trkpt lat="37.494747530505634" lon="14.135720370254543"><ele>434.0</ele><time>2026-04-15T10:10:26.001Z</time></trkpt><trkpt lat="37.49481095350412" lon="14.135728128026319"><ele>434.0</ele><time>2026-04-15T10:11:17.001Z</time></trkpt><trkpt lat="37.494869228431156" lon="14.135687011547008"><ele>434.0</ele><time>2026-04-15T10:11:26.001Z</time></trkpt><trkpt lat="37.49493160599531" lon="14.135640488433408"><ele>434.0</ele><time>2026-04-15T10:11:34.001Z</time></trkpt><trkpt lat="37.49500310173791" lon="14.135621775890426"><ele>434.0</ele><time>2026-04-15T10:11:47.001Z</time></trkpt><trkpt lat="37.49506230888474" lon="14.135578483985155"><ele>434.0</ele><time>2026-04-15T10:11:57.001Z</time></trkpt><trkpt lat="37.49511118796831" lon="14.135508529943491"><ele>434.0</ele><time>2026-04-15T10:12:15.001Z</time></trkpt><trkpt lat="37.49514674668897" lon="14.135436629061397"><ele>434.0</ele><time>2026-04-15T10:12:22.001Z</time></trkpt><trkpt lat="37.495187004675834" lon="14.135369578662644"><ele>434.0</ele><time>2026-04-15T10:12:39.001Z</time></trkpt><trkpt lat="37.49523109843307" lon="14.135311211939344"><ele>434.0</ele><time>2026-04-15T10:12:48.001Z</time></trkpt><trkpt lat="37.49527989459816" lon="14.13525494228309"><ele>434.0</ele><time>2026-04-15T10:13:14Z</time></trkpt><trkpt lat="37.49531061197345" lon="14.135172260313821"><ele>434.0</ele><time>2026-04-15T10:13:19Z</time></trkpt><trkpt lat="37.49535735460132" lon="14.135109663558326"><ele>434.0</ele><time>2026-04-15T10:13:24Z</time></trkpt><trkpt lat="37.49541388767671" lon="14.135068794367765"><ele>434.0</ele><time>2026-04-15T10:13:45Z</time></trkpt><trkpt lat="37.49545961619745" lon="14.135008465833128"><ele>434.0</ele><time>2026-04-15T10:14:01Z</time></trkpt><trkpt lat="37.495513420688454" lon="14.134965218490654"><ele>434.0</ele><time>2026-04-15T10:14:13Z</time></trkpt><trkpt lat="37.49558112171886" lon="14.134901510329446"><ele>434.0</ele><time>2026-04-15T10:14:31.001Z</time></trkpt><trkpt lat="37.495646410158315" lon="14.13491330725121"><ele>437.8571428571429</ele><time>2026-04-15T10:14:36.001Z</time></trkpt><trkpt lat="37.49571080297461" lon="14.134948346790138"><ele>441.7142857142857</ele><time>2026-04-15T10:14:46.001Z</time></trkpt><trkpt lat="37.495733638457885" lon="14.135028241653066"><ele>445.57142857142856</ele><time>2026-04-15T10:15:04Z</time></trkpt><trkpt lat="37.49578654554266" lon="14.135081691598149"><ele>449.42857142857144</ele><time>2026-04-15T10:15:11Z</time></trkpt><trkpt lat="37.49579531315151" lon="14.135172389013718"><ele>453.28571428571433</ele><time>2026-04-15T10:15:17Z</time></trkpt><trkpt lat="37.49574842746919" lon="14.135227683350173"><ele>457.14285714285717</ele><time>2026-04-15T10:15:24Z</time></trkpt><trkpt lat="37.49571283075277" lon="14.135296505184114"><ele>461.0</ele><time>2026-04-15T10:15:28Z</time></trkpt><trkpt lat="37.49567222209279" lon="14.135364132943849"><ele>461.0</ele><time>2026-04-15T10:15:40Z</time></trkpt><trkpt lat="37.49560517705608" lon="14.135383758941417"><ele>461.00000000000006</ele><time>2026-04-15T10:15:44Z</time></trkpt><trkpt lat="37.495557144020815" lon="14.135438735294349"><ele>461.0</ele><time>2026-04-15T10:15:49Z</time></trkpt><trkpt lat="37.495496547819975" lon="14.13547030845444"><ele>461.0</ele><time>2026-04-15T10:16:18Z</time></trkpt><trkpt lat="37.49545143630462" lon="14.135544921711574"><ele>461.00000000000006</ele><time>2026-04-15T10:16:26Z</time></trkpt><trkpt lat="37.49542162766649" lon="14.135623952593114"><ele>461.0</ele><time>2026-04-15T10:16:43Z</time></trkpt><trkpt lat="37.49542431130388" lon="14.135704112691313"><ele>461.0</ele><time>2026-04-15T10:16:49Z</time></trkpt><trkpt lat="37.495384335966" lon="14.135774672240753"><ele>456.14285714285717</ele><time>2026-04-15T10:16:55Z</time></trkpt><trkpt lat="37.49532294705811" lon="14.13580211687032"><ele>451.28571428571433</ele><time>2026-04-15T10:17:05Z</time></trkpt><trkpt lat="37.49525644267107" lon="14.135815842613164"><ele>446.42857142857144</ele><time>2026-04-15T10:17:09Z</time></trkpt><trkpt lat="37.495200583274446" lon="14.13586538547413"><ele>441.57142857142856</ele><time>2026-04-15T10:17:14Z</time></trkpt><trkpt lat="37.49523125038119" lon="14.135955829613053"><ele>436.7142857142857</ele><time>2026-04-15T10:17:21Z</time></trkpt><trkpt lat="37.4952849289233" lon="14.136021013836855"><ele>431.8571428571429</ele><time>2026-04-15T10:17:28Z</time></trkpt><trkpt lat="37.4952575089605" lon="14.136102809984614"><ele>427.0</ele><time>2026-04-15T10:17:33Z</time></trkpt><trkpt lat="37.49518629019724" lon="14.136121873298634"><ele>427.0</ele><time>2026-04-15T10:17:38Z</time></trkpt><trkpt lat="37.49511860047076" lon="14.136094266758263"><ele>427.0</ele><time>2026-04-15T10:17:54Z</time></trkpt><trkpt lat="37.49505205442765" lon="14.136071505578244"><ele>427.0</ele><time>2026-04-15T10:18:01Z</time></trkpt><trkpt lat="37.49498075420909" lon="14.136017670474004"><ele>427.0</ele><time>2026-04-15T10:18:30Z</time></trkpt><trkpt lat="37.494944574746526" lon="14.135927258817219"><ele>427.0</ele><time>2026-04-15T10:18:53Z</time></trkpt><trkpt lat="37.494890865825404" lon="14.135982762480982"><ele>427.0</ele><time>2026-04-15T10:18:58Z</time></trkpt><trkpt lat="37.494824583995005" lon="14.135994403849784"><ele>427.0</ele><time>2026-04-15T10:19:05Z</time></trkpt><trkpt lat="37.49484100729877" lon="14.136072150800976"><ele>427.0</ele><time>2026-04-15T10:19:17Z</time></trkpt><trkpt lat="37.49487980737156" lon="14.13614805230038"><ele>427.0</ele><time>2026-04-15T10:19:22Z</time></trkpt><trkpt lat="37.49487319919555" lon="14.136230262673546"><ele>427.0</ele><time>2026-04-15T10:19:27Z</time></trkpt><trkpt lat="37.49484445350866" lon="14.136305575243922"><ele>427.0</ele><time>2026-04-15T10:19:33Z</time></trkpt><trkpt lat="37.49480189900174" lon="14.13636620723685"><ele>427.0</ele><time>2026-04-15T10:19:39Z</time></trkpt><trkpt lat="37.494756468325164" lon="14.13642904173095"><ele>427.0</ele><time>2026-04-15T10:19:44Z</time></trkpt><trkpt lat="37.494685446119135" lon="14.136398631696254"><ele>427.0</ele><time>2026-04-15T10:20:12Z</time></trkpt><trkpt lat="37.49462065416204" lon="14.136424211565494"><ele>427.0</ele><time>2026-04-15T10:20:30Z</time></trkpt><trkpt lat="37.494559794563756" lon="14.136459677407881"><ele>427.0</ele><time>2026-04-15T10:20:45Z</time></trkpt><trkpt lat="37.49453590614135" lon="14.136546701894318"><ele>427.0</ele><time>2026-04-15T10:20:51Z</time></trkpt><trkpt lat="37.49457185950805" lon="14.13661574378182"><ele>427.0</ele><time>2026-04-15T10:20:57Z</time></trkpt><trkpt lat="37.49459722863678" lon="14.136694167872827"><ele>427.0</ele><time>2026-04-15T10:21:04Z</time></trkpt><trkpt lat="37.494618953754625" lon="14.13678558141526"><ele>427.0</ele><time>2026-04-15T10:21:11Z</time></trkpt><trkpt lat="37.49464521720597" lon="14.136867476271275"><ele>427.0</ele><time>2026-04-15T10:21:18Z</time></trkpt><trkpt lat="37.49467829338256" lon="14.136937358080697"><ele>427.0</ele><time>2026-04-15T10:21:23Z</time></trkpt><trkpt lat="37.49471892879845" lon="14.137000485070045"><ele>427.0</ele><time>2026-04-15T10:21:28Z</time></trkpt><trkpt lat="37.49475257552996" lon="14.137069857029854"><ele>427.0</ele><time>2026-04-15T10:21:33Z</time></trkpt><trkpt lat="37.494794704080526" lon="14.1371292100946"><ele>427.0</ele><time>2026-04-15T10:21:38Z</time></trkpt><trkpt lat="37.49483564981531" lon="14.137205556905931"><ele>427.0</ele><time>2026-04-15T10:21:44Z</time></trkpt><trkpt lat="37.49489321133724" lon="14.137253389052026"><ele>427.0</ele><time>2026-04-15T10:21:50Z</time></trkpt><trkpt lat="37.49494592304324" lon="14.137186438744914"><ele>427.0</ele><time>2026-04-15T10:21:56Z</time></trkpt><trkpt lat="37.494957114510626" lon="14.1371011502358"><ele>427.0</ele><time>2026-04-15T10:22:01Z</time></trkpt><trkpt lat="37.49497386554399" lon="14.137013063162751"><ele>427.0</ele><time>2026-04-15T10:22:07Z</time></trkpt><trkpt lat="37.49502219875842" lon="14.136961850673549"><ele>427.0</ele><time>2026-04-15T10:22:12Z</time></trkpt><trkpt lat="37.49508987676712" lon="14.137011268542851"><ele>427.0</ele><time>2026-04-15T10:22:17Z</time></trkpt><trkpt lat="37.4950782691384" lon="14.137100721578275"><ele>427.0</ele><time>2026-04-15T10:22:21Z</time></trkpt><trkpt lat="37.495047475376616" lon="14.137190507190448"><ele>427.0</ele><time>2026-04-15T10:22:26Z</time></trkpt><trkpt lat="37.495035539397676" lon="14.137273328446717"><ele>427.0</ele><time>2026-04-15T10:22:30Z</time></trkpt><trkpt lat="37.495033851404294" lon="14.137370942604113"><ele>425.85714285714283</ele><time>2026-04-15T10:22:35Z</time></trkpt><trkpt lat="37.495039636075205" lon="14.137450330327246"><ele>424.7142857142857</ele><time>2026-04-15T10:22:39Z</time></trkpt><trkpt lat="37.49506568356471" lon="14.137530988804127"><ele>423.57142857142856</ele><time>2026-04-15T10:22:43Z</time></trkpt><trkpt lat="37.49509351368943" lon="14.13761041853285"><ele>422.42857142857144</ele><time>2026-04-15T10:22:50Z</time></trkpt><trkpt lat="37.49512533069949" lon="14.137698263299617"><ele>421.2857142857143</ele><time>2026-04-15T10:22:58Z</time></trkpt><trkpt lat="37.49507669669024" lon="14.137755279929701"><ele>420.1428571428571</ele><time>2026-04-15T10:23:39Z</time></trkpt><trkpt lat="37.495085299429796" lon="14.137836354074855"><ele>419.0</ele><time>2026-04-15T10:25:03Z</time></trkpt><trkpt lat="37.495095156451484" lon="14.137920003432626"><ele>418.99999999999994</ele><time>2026-04-15T10:25:13Z</time></trkpt><trkpt lat="37.49510245750684" lon="14.138000747846055"><ele>419.0</ele><time>2026-04-15T10:25:18.999Z</time></trkpt><trkpt lat="37.495108036104085" lon="14.138080067191222"><ele>419.0</ele><time>2026-04-15T10:25:36.999Z</time></trkpt><trkpt lat="37.495101415149215" lon="14.13816750759067"><ele>419.0</ele><time>2026-04-15T10:25:41.999Z</time></trkpt><trkpt lat="37.4950994361995" lon="14.138254698559576"><ele>419.0</ele><time>2026-04-15T10:25:49.999Z</time></trkpt><trkpt lat="37.49509761574497" lon="14.138353682752925"><ele>418.99999999999994</ele><time>2026-04-15T10:25:56.999Z</time></trkpt><trkpt lat="37.49509149376214" lon="14.138432797913572"><ele>419.0</ele><time>2026-04-15T10:26:01.999Z</time></trkpt><trkpt lat="37.495084290595265" lon="14.138520979960406"><ele>417.1428571428571</ele><time>2026-04-15T10:26:07Z</time></trkpt><trkpt lat="37.49508922232044" lon="14.138616435080964"><ele>415.2857142857143</ele><time>2026-04-15T10:26:13Z</time></trkpt><trkpt lat="37.4950752754693" lon="14.138696255082696"><ele>413.42857142857144</ele><time>2026-04-15T10:26:17Z</time></trkpt><trkpt lat="37.49507674091144" lon="14.13877789565113"><ele>411.57142857142856</ele><time>2026-04-15T10:26:23Z</time></trkpt><trkpt lat="37.495072117175134" lon="14.13885954737095"><ele>409.7142857142857</ele><time>2026-04-15T10:26:28Z</time></trkpt><trkpt lat="37.49507305136892" lon="14.138940520628292"><ele>407.85714285714283</ele><time>2026-04-15T10:26:33Z</time></trkpt><trkpt lat="37.4950957837767" lon="14.139019682631764"><ele>406.0</ele><time>2026-04-15T10:26:38Z</time></trkpt><trkpt lat="37.49516017661399" lon="14.139012842342998"><ele>406.0</ele><time>2026-04-15T10:26:42Z</time></trkpt><trkpt lat="37.49522342326234" lon="14.138984175269593"><ele>406.0</ele><time>2026-04-15T10:26:47Z</time></trkpt><trkpt lat="37.49528424695994" lon="14.138938952135797"><ele>406.0</ele><time>2026-04-15T10:26:53Z</time></trkpt><trkpt lat="37.49534207573011" lon="14.138901838701992"><ele>406.0</ele><time>2026-04-15T10:26:59Z</time></trkpt><trkpt lat="37.49539611405133" lon="14.138850633002349"><ele>406.0</ele><time>2026-04-15T10:27:05Z</time></trkpt><trkpt lat="37.49543471234915" lon="14.138780336238746"><ele>406.0</ele><time>2026-04-15T10:27:11Z</time></trkpt><trkpt lat="37.495496824980314" lon="14.138757352020729"><ele>406.0</ele><time>2026-04-15T10:27:24.998Z</time></trkpt><trkpt lat="37.49556913814853" lon="14.138730068118177"><ele>406.42857142857144</ele><time>2026-04-15T10:27:32.998Z</time></trkpt><trkpt lat="37.4956287679872" lon="14.138700231978701"><ele>406.8571428571429</ele><time>2026-04-15T10:27:37.999Z</time></trkpt><trkpt lat="37.49569489525851" lon="14.138664992164902"><ele>407.2857142857143</ele><time>2026-04-15T10:27:43.999Z</time></trkpt><trkpt lat="37.49574089483537" lon="14.13860624138343"><ele>407.7142857142857</ele><time>2026-04-15T10:27:48.999Z</time></trkpt><trkpt lat="37.49578385894397" lon="14.138540996873875"><ele>408.14285714285717</ele><time>2026-04-15T10:27:55.999Z</time></trkpt><trkpt lat="37.49578983701238" lon="14.13845620066676"><ele>408.57142857142856</ele><time>2026-04-15T10:28:03.999Z</time></trkpt><trkpt lat="37.49573519959507" lon="14.13840607154651"><ele>409.0</ele><time>2026-04-15T10:28:12Z</time></trkpt><trkpt lat="37.49567909484673" lon="14.138448997303604"><ele>409.0</ele><time>2026-04-15T10:28:17Z</time></trkpt><trkpt lat="37.49562439453684" lon="14.138513301633283"><ele>409.0</ele><time>2026-04-15T10:28:23Z</time></trkpt><trkpt lat="37.49556786923011" lon="14.138554528125423"><ele>409.0</ele><time>2026-04-15T10:28:28Z</time></trkpt><trkpt lat="37.495507732823704" lon="14.13860882181673"><ele>409.0</ele><time>2026-04-15T10:28:35Z</time></trkpt><trkpt lat="37.495447653884376" lon="14.13856843495889"><ele>409.0</ele><time>2026-04-15T10:28:45Z</time></trkpt><trkpt lat="37.495404992148735" lon="14.138495055872303"><ele>409.0</ele><time>2026-04-15T10:28:55Z</time></trkpt><trkpt lat="37.49537624748897" lon="14.13841680029343"><ele>409.0</ele><time>2026-04-15T10:29:10Z</time></trkpt><trkpt lat="37.49534736375447" lon="14.138329052683197"><ele>408.57142857142856</ele><time>2026-04-15T10:29:22Z</time></trkpt><trkpt lat="37.49534084254952" lon="14.138248856336658"><ele>408.14285714285717</ele><time>2026-04-15T10:29:28Z</time></trkpt><trkpt lat="37.495333560263894" lon="14.138169898653482"><ele>407.7142857142857</ele><time>2026-04-15T10:29:36Z</time></trkpt><trkpt lat="37.495342607927064" lon="14.138080108100986"><ele>407.2857142857143</ele><time>2026-04-15T10:29:48Z</time></trkpt><trkpt lat="37.495341950075584" lon="14.137994608958264"><ele>406.8571428571429</ele><time>2026-04-15T10:29:57Z</time></trkpt><trkpt lat="37.49537114108131" lon="14.137917013581797"><ele>406.42857142857144</ele><time>2026-04-15T10:30:07Z</time></trkpt><trkpt lat="37.49543022284849" lon="14.137876185411208"><ele>406.0</ele><time>2026-04-15T10:30:15Z</time></trkpt><trkpt lat="37.495494652023766" lon="14.137855301800698"><ele>409.0</ele><time>2026-04-15T10:30:20Z</time></trkpt><trkpt lat="37.49555504024386" lon="14.137828880135206"><ele>412.0</ele><time>2026-04-15T10:30:25Z</time></trkpt><trkpt lat="37.49562592707977" lon="14.137813169904067"><ele>415.0</ele><time>2026-04-15T10:30:32Z</time></trkpt><trkpt lat="37.49568538440467" lon="14.13778328817965"><ele>418.0</ele><time>2026-04-15T10:30:38Z</time></trkpt><trkpt lat="37.49575438556493" lon="14.137748800232897"><ele>421.0</ele><time>2026-04-15T10:30:44Z</time></trkpt><trkpt lat="37.4958269693081" lon="14.137737481828697"><ele>424.0</ele><time>2026-04-15T10:30:50.001Z</time></trkpt><trkpt lat="37.495893682330035" lon="14.137785592482656"><ele>427.0</ele><time>2026-04-15T10:31:05.001Z</time></trkpt><trkpt lat="37.495958638890066" lon="14.137838329537706"><ele>427.0</ele><time>2026-04-15T10:31:10.001Z</time></trkpt><trkpt lat="37.49601653969181" lon="14.137878761166384"><ele>427.0</ele><time>2026-04-15T10:31:15.001Z</time></trkpt><trkpt lat="37.49606649529957" lon="14.137928942897615"><ele>427.0</ele><time>2026-04-15T10:31:20.001Z</time></trkpt><trkpt lat="37.496135054950535" lon="14.137962697576983"><ele>427.0</ele><time>2026-04-15T10:31:26.001Z</time></trkpt><trkpt lat="37.49620827083549" lon="14.137981769060046"><ele>427.0</ele><time>2026-04-15T10:31:32.001Z</time></trkpt><trkpt lat="37.496268029317754" lon="14.137951079957173"><ele>427.0</ele><time>2026-04-15T10:31:43Z</time></trkpt><trkpt lat="37.496322479255355" lon="14.137886367356648"><ele>427.0</ele><time>2026-04-15T10:31:52Z</time></trkpt><trkpt lat="37.49635905638911" lon="14.137810432946731"><ele>427.0</ele><time>2026-04-15T10:32:28.001Z</time></trkpt><trkpt lat="37.49642880588913" lon="14.137770208818393"><ele>427.0</ele><time>2026-04-15T10:32:36.001Z</time></trkpt><trkpt lat="37.49644947567613" lon="14.137693203214342"><ele>427.0</ele><time>2026-04-15T10:32:47.001Z</time></trkpt><trkpt lat="37.49649461455871" lon="14.137633952833815"><ele>427.0</ele><time>2026-04-15T10:32:55.001Z</time></trkpt><trkpt lat="37.49653759586019" lon="14.137572547892479"><ele>427.0</ele><time>2026-04-15T10:33:02.001Z</time></trkpt><trkpt lat="37.496591849684016" lon="14.137519364500243"><ele>427.0</ele><time>2026-04-15T10:33:10.001Z</time></trkpt><trkpt lat="37.496625829137486" lon="14.137446595584317"><ele>427.0</ele><time>2026-04-15T10:33:19.001Z</time></trkpt><trkpt lat="37.49665198440161" lon="14.137343480006123"><ele>429.85714285714283</ele><time>2026-04-15T10:33:27.001Z</time></trkpt><trkpt lat="37.496592284077266" lon="14.137302448241368"><ele>432.7142857142857</ele><time>2026-04-15T10:33:33.001Z</time></trkpt><trkpt lat="37.49659112772124" lon="14.137218447523644"><ele>435.57142857142856</ele><time>2026-04-15T10:33:40.001Z</time></trkpt><trkpt lat="37.496538022399726" lon="14.13726424706112"><ele>438.42857142857144</ele><time>2026-04-15T10:34:24.001Z</time></trkpt><trkpt lat="37.496474968345765" lon="14.137308640625836"><ele>441.2857142857143</ele><time>2026-04-15T10:34:45.001Z</time></trkpt><trkpt lat="37.496405984519896" lon="14.137332283035706"><ele>444.1428571428571</ele><time>2026-04-15T10:34:51.001Z</time></trkpt><trkpt lat="37.49636040208994" lon="14.137272814175697"><ele>447.0</ele><time>2026-04-15T10:34:57.001Z</time></trkpt><trkpt lat="37.49630412698211" lon="14.137231335480767"><ele>446.85714285714283</ele><time>2026-04-15T10:35:01.001Z</time></trkpt><trkpt lat="37.49624182586012" lon="14.137212273953807"><ele>446.7142857142857</ele><time>2026-04-15T10:35:07.001Z</time></trkpt><trkpt lat="37.49616779279747" lon="14.13721425960102"><ele>446.57142857142856</ele><time>2026-04-15T10:35:13.001Z</time></trkpt><trkpt lat="37.49609645757283" lon="14.137225075642409"><ele>446.42857142857144</ele><time>2026-04-15T10:35:19.001Z</time></trkpt><trkpt lat="37.49602473217295" lon="14.137212095467033"><ele>446.2857142857143</ele><time>2026-04-15T10:35:30.001Z</time></trkpt><trkpt lat="37.49596139931935" lon="14.137224515457675"><ele>446.1428571428571</ele><time>2026-04-15T10:35:50Z</time></trkpt><trkpt lat="37.49587672692178" lon="14.137232810432979"><ele>446.0</ele><time>2026-04-15T10:35:55Z</time></trkpt><trkpt lat="37.49580174725824" lon="14.137248692473083"><ele>446.0</ele><time>2026-04-15T10:36:03Z</time></trkpt><trkpt lat="37.495725029731794" lon="14.137248899915777"><ele>446.0</ele><time>2026-04-15T10:36:09Z</time></trkpt><trkpt lat="37.49565458396992" lon="14.137211451175503"><ele>446.0</ele><time>2026-04-15T10:36:14Z</time></trkpt><trkpt lat="37.49560332653713" lon="14.137159469074273"><ele>446.0</ele><time>2026-04-15T10:36:19Z</time></trkpt><trkpt lat="37.495541958157524" lon="14.137119416893764"><ele>446.0</ele><time>2026-04-15T10:36:24Z</time></trkpt><trkpt lat="37.49548439330304" lon="14.137063618108074"><ele>446.0</ele><time>2026-04-15T10:36:30Z</time></trkpt><trkpt lat="37.49549485364015" lon="14.136977536829514"><ele>446.0</ele><time>2026-04-15T10:36:36Z</time></trkpt><trkpt lat="37.495554289960246" lon="14.13689388115525"><ele>446.0</ele><time>2026-04-15T10:36:43Z</time></trkpt><trkpt lat="37.49554040186976" lon="14.136805494541186"><ele>446.0</ele><time>2026-04-15T10:36:52Z</time></trkpt><trkpt lat="37.49553468043314" lon="14.136720842207923"><ele>446.0</ele><time>2026-04-15T10:36:59Z</time></trkpt><trkpt lat="37.495519983320065" lon="14.136633105193136"><ele>446.0</ele><time>2026-04-15T10:37:06Z</time></trkpt><trkpt lat="37.49554579111643" lon="14.136557482608373"><ele>446.0</ele><time>2026-04-15T10:37:12Z</time></trkpt><trkpt lat="37.495586884609224" lon="14.136480933674877"><ele>446.0</ele><time>2026-04-15T10:37:17Z</time></trkpt><trkpt lat="37.49562225639067" lon="14.136415241047617"><ele>446.0</ele><time>2026-04-15T10:37:25Z</time></trkpt><trkpt lat="37.495665199737665" lon="14.136343012394075"><ele>446.0</ele><time>2026-04-15T10:37:40Z</time></trkpt><trkpt lat="37.495731944485" lon="14.136297420699274"><ele>446.0</ele><time>2026-04-15T10:37:48.001Z</time></trkpt><trkpt lat="37.495801620742746" lon="14.13630501605095"><ele>446.0</ele><time>2026-04-15T10:37:50.001Z</time></trkpt><trkpt lat="37.49582655723317" lon="14.136388018857904"><ele>446.0</ele><time>2026-04-15T10:37:57Z</time></trkpt><trkpt lat="37.495817131682955" lon="14.136467639416951"><ele>446.0</ele><time>2026-04-15T10:38:02Z</time></trkpt><trkpt lat="37.495848342260544" lon="14.13655030785511"><ele>446.0</ele><time>2026-04-15T10:38:07Z</time></trkpt><trkpt lat="37.495843122319954" lon="14.136637794127317"><ele>446.0</ele><time>2026-04-15T10:38:18Z</time></trkpt><trkpt lat="37.49583408998977" lon="14.136719024530615"><ele>446.0</ele><time>2026-04-15T10:38:23Z</time></trkpt><trkpt lat="37.495845268257945" lon="14.136806083445446"><ele>446.0</ele><time>2026-04-15T10:38:29Z</time></trkpt><trkpt lat="37.495868699490956" lon="14.136884167202602"><ele>446.0</ele><time>2026-04-15T10:38:36Z</time></trkpt><trkpt lat="37.495937497488526" lon="14.136895359491522"><ele>446.0</ele><time>2026-04-15T10:38:41Z</time></trkpt><trkpt lat="37.49600285149121" lon="14.136890178346388"><ele>446.0</ele><time>2026-04-15T10:38:45Z</time></trkpt><trkpt lat="37.496062175952005" lon="14.136932175130717"><ele>446.0</ele><time>2026-04-15T10:38:49Z</time></trkpt><trkpt lat="37.49612046100386" lon="14.1368759141886"><ele>446.0</ele><time>2026-04-15T10:38:54Z</time></trkpt><trkpt lat="37.49619343342926" lon="14.136858467818936"><ele>446.1428571428571</ele><time>2026-04-15T10:39:00Z</time></trkpt><trkpt lat="37.496260119111945" lon="14.136834387067406"><ele>446.2857142857143</ele><time>2026-04-15T10:39:06Z</time></trkpt><trkpt lat="37.49631718275198" lon="14.136789730288532"><ele>446.42857142857144</ele><time>2026-04-15T10:39:12Z</time></trkpt><trkpt lat="37.496377265278355" lon="14.136751490868493"><ele>446.57142857142856</ele><time>2026-04-15T10:39:17Z</time></trkpt><trkpt lat="37.49643781028301" lon="14.136729731339912"><ele>446.7142857142857</ele><time>2026-04-15T10:39:22Z</time></trkpt><trkpt lat="37.49649966739353" lon="14.136688463181297"><ele>446.85714285714283</ele><time>2026-04-15T10:39:28Z</time></trkpt><trkpt lat="37.49656031897979" lon="14.136659465558635"><ele>447.0</ele><time>2026-04-15T10:39:35Z</time></trkpt><trkpt lat="37.49661753418137" lon="14.136599209430145"><ele>446.99999999999994</ele><time>2026-04-15T10:39:43.001Z</time></trkpt><trkpt lat="37.49667675530717" lon="14.136560689940497"><ele>447.0</ele><time>2026-04-15T10:39:51.001Z</time></trkpt><trkpt lat="37.49673857251774" lon="14.1365250077874"><ele>447.0</ele><time>2026-04-15T10:39:59.001Z</time></trkpt><trkpt lat="37.496801842199254" lon="14.136526872123888"><ele>447.0</ele><time>2026-04-15T10:40:06Z</time></trkpt><trkpt lat="37.49682750301523" lon="14.136612009954952"><ele>447.0</ele><time>2026-04-15T10:40:13Z</time></trkpt><trkpt lat="37.496783201949604" lon="14.136680266977418"><ele>446.99999999999994</ele><time>2026-04-15T10:40:18Z</time></trkpt><trkpt lat="37.49677436442391" lon="14.136761752194678"><ele>447.0</ele><time>2026-04-15T10:40:22Z</time></trkpt><trkpt lat="37.49683549730407" lon="14.136811897107675"><ele>446.99999999999994</ele><time>2026-04-15T10:40:26Z</time></trkpt><trkpt lat="37.49690795061928" lon="14.136816935043269"><ele>447.0</ele><time>2026-04-15T10:40:31Z</time></trkpt><trkpt lat="37.4969689838311" lon="14.136784535136902"><ele>447.0</ele><time>2026-04-15T10:40:36Z</time></trkpt><trkpt lat="37.497023269434635" lon="14.136718536401169"><ele>447.0</ele><time>2026-04-15T10:40:42Z</time></trkpt><trkpt lat="37.49706225488744" lon="14.136652855841175"><ele>447.0</ele><time>2026-04-15T10:40:48Z</time></trkpt><trkpt lat="37.497114745400744" lon="14.136602129103734"><ele>446.99999999999994</ele><time>2026-04-15T10:40:56Z</time></trkpt><trkpt lat="37.4971776297967" lon="14.1365721650086"><ele>447.0</ele><time>2026-04-15T10:41:04Z</time></trkpt><trkpt lat="37.49724544499893" lon="14.136565173628268"><ele>450.0</ele><time>2026-04-15T10:41:09Z</time></trkpt><trkpt lat="37.497318545307905" lon="14.136551577997821"><ele>453.0</ele><time>2026-04-15T10:41:16Z</time></trkpt><trkpt lat="37.497388155923595" lon="14.136534149368732"><ele>456.0</ele><time>2026-04-15T10:41:22Z</time></trkpt><trkpt lat="37.497447483705706" lon="14.136497739793086"><ele>459.0</ele><time>2026-04-15T10:41:30Z</time></trkpt><trkpt lat="37.49748231422016" lon="14.13643130684154"><ele>462.00000000000006</ele><time>2026-04-15T10:41:33Z</time></trkpt><trkpt lat="37.49747700522575" lon="14.136347109798658"><ele>465.0</ele><time>2026-04-15T10:41:39Z</time></trkpt><trkpt lat="37.49751623495723" lon="14.136266306709258"><ele>468.0</ele><time>2026-04-15T10:41:47Z</time></trkpt><trkpt lat="37.49753376246859" lon="14.136189503646582"><ele>468.0</ele><time>2026-04-15T10:41:57Z</time></trkpt><trkpt lat="37.49753952833626" lon="14.136106729297154"><ele>468.00000000000006</ele><time>2026-04-15T10:42:09Z</time></trkpt><trkpt lat="37.497559934278414" lon="14.136026871268552"><ele>468.0</ele><time>2026-04-15T10:42:15Z</time></trkpt><trkpt lat="37.497525821329404" lon="14.135942990530612"><ele>468.0</ele><time>2026-04-15T10:42:23Z</time></trkpt><trkpt lat="37.4974627014122" lon="14.135929401427923"><ele>468.00000000000006</ele><time>2026-04-15T10:42:28Z</time></trkpt><trkpt lat="37.49738086401553" lon="14.13595753775726"><ele>468.0</ele><time>2026-04-15T10:42:33Z</time></trkpt><trkpt lat="37.49730667557357" lon="14.135941752168636"><ele>468.0</ele><time>2026-04-15T10:42:38Z</time></trkpt><trkpt lat="37.49724261955586" lon="14.135956370588996"><ele>468.0</ele><time>2026-04-15T10:42:43Z</time></trkpt><trkpt lat="37.4971708724048" lon="14.135952219113324"><ele>468.00000000000006</ele><time>2026-04-15T10:42:49Z</time></trkpt><trkpt lat="37.497104648270074" lon="14.135963192622746"><ele>468.0</ele><time>2026-04-15T10:42:56Z</time></trkpt><trkpt lat="37.497034296698544" lon="14.135972133049453"><ele>468.0</ele><time>2026-04-15T10:43:01Z</time></trkpt><trkpt lat="37.49697072855891" lon="14.135982923174268"><ele>468.00000000000006</ele><time>2026-04-15T10:43:07Z</time></trkpt><trkpt lat="37.49690581813993" lon="14.13598433998317"><ele>468.0</ele><time>2026-04-15T10:43:12Z</time></trkpt><trkpt lat="37.496836768128944" lon="14.136003486645157"><ele>468.0</ele><time>2026-04-15T10:43:19Z</time></trkpt><trkpt lat="37.496772120954326" lon="14.136018768920225"><ele>468.8333333333333</ele><time>2026-04-15T10:43:25Z</time></trkpt><trkpt lat="37.49670850955837" lon="14.136020132277153"><ele>469.66666666666663</ele><time>2026-04-15T10:43:32Z</time></trkpt><trkpt lat="37.49662969067909" lon="14.136014987267332"><ele>470.5</ele><time>2026-04-15T10:43:40Z</time></trkpt><trkpt lat="37.49656509342431" lon="14.13600588694758"><ele>471.3333333333333</ele><time>2026-04-15T10:43:45Z</time></trkpt><trkpt lat="37.49648873412788" lon="14.13594695250215"><ele>472.16666666666663</ele><time>2026-04-15T10:44:23.999Z</time></trkpt><trkpt lat="37.49640582179671" lon="14.135896831052861"><ele>473.0</ele><time>2026-04-15T10:44:29.999Z</time></trkpt><trkpt lat="37.49633352171208" lon="14.135864621449029"><ele>473.0</ele><time>2026-04-15T10:44:41Z</time></trkpt><trkpt lat="37.49627183596888" lon="14.135810738555671"><ele>473.0</ele><time>2026-04-15T10:44:47Z</time></trkpt><trkpt lat="37.49620093328384" lon="14.135775252780403"><ele>473.0</ele><time>2026-04-15T10:44:54Z</time></trkpt><trkpt lat="37.49614067131114" lon="14.135730210078954"><ele>473.0</ele><time>2026-04-15T10:44:59Z</time></trkpt><trkpt lat="37.4961101107213" lon="14.135657775490536"><ele>473.0</ele><time>2026-04-15T10:45:12Z</time></trkpt><trkpt lat="37.49608411381021" lon="14.13558280269907"><ele>473.0</ele><time>2026-04-15T10:45:17Z</time></trkpt><trkpt lat="37.49606589190463" lon="14.135499773485542"><ele>473.0</ele><time>2026-04-15T10:45:22Z</time></trkpt><trkpt lat="37.49604828946432" lon="14.135421777313919"><ele>472.0</ele><time>2026-04-15T10:45:30Z</time></trkpt><trkpt lat="37.496061985091366" lon="14.135343942307577"><ele>471.0</ele><time>2026-04-15T10:45:35Z</time></trkpt><trkpt lat="37.49606539940651" lon="14.13525201161528"><ele>470.0</ele><time>2026-04-15T10:45:52Z</time></trkpt><trkpt lat="37.49606729803847" lon="14.135164879730066"><ele>469.0</ele><time>2026-04-15T10:45:58Z</time></trkpt><trkpt lat="37.49606269282577" lon="14.135076071614"><ele>468.0</ele><time>2026-04-15T10:46:04Z</time></trkpt><trkpt lat="37.49605369130081" lon="14.134992055197296"><ele>467.0</ele><time>2026-04-15T10:46:12Z</time></trkpt><trkpt lat="37.496020683267126" lon="14.134913624931832"><ele>466.0</ele><time>2026-04-15T10:46:19Z</time></trkpt><trkpt lat="37.49605912018576" lon="14.134837798857111"><ele>465.28571428571433</ele><time>2026-04-15T10:46:25Z</time></trkpt><trkpt lat="37.49610653550945" lon="14.134897639443166"><ele>464.57142857142856</ele><time>2026-04-15T10:46:32Z</time></trkpt><trkpt lat="37.496124359774356" lon="14.13497501697499"><ele>463.8571428571429</ele><time>2026-04-15T10:46:45Z</time></trkpt><trkpt lat="37.49614690417993" lon="14.135049856192042"><ele>463.14285714285717</ele><time>2026-04-15T10:46:53Z</time></trkpt><trkpt lat="37.49617575658622" lon="14.135125371880257"><ele>462.42857142857144</ele><time>2026-04-15T10:47:00Z</time></trkpt><trkpt lat="37.49621791607589" lon="14.135207547337458"><ele>461.7142857142857</ele><time>2026-04-15T10:47:06Z</time></trkpt><trkpt lat="37.496255785554325" lon="14.13528445246504"><ele>461.0</ele><time>2026-04-15T10:47:14Z</time></trkpt><trkpt lat="37.496304672536645" lon="14.135359112157705"><ele>462.7142857142857</ele><time>2026-04-15T10:47:20Z</time></trkpt><trkpt lat="37.49632672270327" lon="14.135439084581227"><ele>464.42857142857144</ele><time>2026-04-15T10:47:27Z</time></trkpt><trkpt lat="37.49636032867789" lon="14.135512834979416"><ele>466.14285714285717</ele><time>2026-04-15T10:47:35Z</time></trkpt><trkpt lat="37.4964110658819" lon="14.135565023796627"><ele>467.8571428571429</ele><time>2026-04-15T10:47:42Z</time></trkpt><trkpt lat="37.49642714715437" lon="14.135648160427548"><ele>469.57142857142856</ele><time>2026-04-15T10:47:58Z</time></trkpt><trkpt lat="37.49643060829112" lon="14.135735342167436"><ele>471.28571428571433</ele><time>2026-04-15T10:48:04Z</time></trkpt><trkpt lat="37.49650285434995" lon="14.135774689022627"><ele>473.0</ele><time>2026-04-15T10:48:09Z</time></trkpt><trkpt lat="37.49657040271094" lon="14.13577107782714"><ele>473.0</ele><time>2026-04-15T10:48:15Z</time></trkpt><trkpt lat="37.49662937729035" lon="14.1357413707851"><ele>473.0</ele><time>2026-04-15T10:48:21Z</time></trkpt><trkpt lat="37.49669151082402" lon="14.135708454832614"><ele>473.0</ele><time>2026-04-15T10:48:26.999Z</time></trkpt><trkpt lat="37.49675314617256" lon="14.135744635559337"><ele>473.0</ele><time>2026-04-15T10:48:50Z</time></trkpt><trkpt lat="37.49682850542894" lon="14.135739286002808"><ele>473.0</ele><time>2026-04-15T10:48:56Z</time></trkpt><trkpt lat="37.49689536950755" lon="14.13573426045418"><ele>473.0</ele><time>2026-04-15T10:49:02Z</time></trkpt><trkpt lat="37.49695910136338" lon="14.135726194802714"><ele>473.0</ele><time>2026-04-15T10:49:07Z</time></trkpt><trkpt lat="37.49704225942321" lon="14.135661968824072"><ele>475.66666666666663</ele><time>2026-04-15T10:49:39Z</time></trkpt><trkpt lat="37.497114073783465" lon="14.135631233194458"><ele>478.3333333333333</ele><time>2026-04-15T10:49:47Z</time></trkpt><trkpt lat="37.49718209029649" lon="14.135664837829044"><ele>481.0</ele><time>2026-04-15T10:50:14Z</time></trkpt><trkpt lat="37.497310596253854" lon="14.13565282564891"><ele>483.66666666666663</ele><time>2026-04-15T10:50:18Z</time></trkpt><trkpt lat="37.49734149716426" lon="14.135569458724056"><ele>486.3333333333333</ele><time>2026-04-15T10:50:28.999Z</time></trkpt><trkpt lat="37.49740144733749" lon="14.13552710144919"><ele>489.0</ele><time>2026-04-15T10:50:34.999Z</time></trkpt><trkpt lat="37.49746563908329" lon="14.135486233611022"><ele>489.0</ele><time>2026-04-15T10:50:40.999Z</time></trkpt><trkpt lat="37.497533372703494" lon="14.135458240549676"><ele>489.00000000000006</ele><time>2026-04-15T10:50:47.999Z</time></trkpt><trkpt lat="37.49758549306368" lon="14.135403254720746"><ele>489.0</ele><time>2026-04-15T10:50:53.999Z</time></trkpt><trkpt lat="37.49761814361676" lon="14.135321005752257"><ele>489.0</ele><time>2026-04-15T10:51:00Z</time></trkpt><trkpt lat="37.49766257289448" lon="14.13524415873248"><ele>489.00000000000006</ele><time>2026-04-15T10:51:06Z</time></trkpt><trkpt lat="37.497724966427846" lon="14.135212317300635"><ele>489.0</ele><time>2026-04-15T10:51:13Z</time></trkpt><trkpt lat="37.497788460032986" lon="14.135224783601661"><ele>489.0</ele><time>2026-04-15T10:51:37Z</time></trkpt><trkpt lat="37.49781285213141" lon="14.13530044337537"><ele>489.0</ele><time>2026-04-15T10:51:41Z</time></trkpt><trkpt lat="37.497831621320636" lon="14.135387608384175"><ele>489.00000000000006</ele><time>2026-04-15T10:51:48Z</time></trkpt><trkpt lat="37.4978408304604" lon="14.135474894841568"><ele>489.0</ele><time>2026-04-15T10:51:54Z</time></trkpt><trkpt lat="37.49788635629974" lon="14.135537809420866"><ele>489.0</ele><time>2026-04-15T10:52:02Z</time></trkpt><trkpt lat="37.49790925095789" lon="14.135621696316159"><ele>489.00000000000006</ele><time>2026-04-15T10:52:10Z</time></trkpt><trkpt lat="37.49793695067182" lon="14.135697564931352"><ele>489.0</ele><time>2026-04-15T10:52:16Z</time></trkpt><trkpt lat="37.49793676810774" lon="14.135789292692492"><ele>489.0</ele><time>2026-04-15T10:52:28Z</time></trkpt><trkpt lat="37.4979681993619" lon="14.135859449013418"><ele>488.28571428571433</ele><time>2026-04-15T10:52:34.001Z</time></trkpt><trkpt lat="37.49803232549935" lon="14.135906038902142"><ele>487.5714285714286</ele><time>2026-04-15T10:52:46Z</time></trkpt><trkpt lat="37.49805087171602" lon="14.135828096995334"><ele>486.8571428571429</ele><time>2026-04-15T10:53:20Z</time></trkpt><trkpt lat="37.49806148293097" lon="14.135737791542835"><ele>486.1428571428571</ele><time>2026-04-15T10:53:30Z</time></trkpt><trkpt lat="37.498078242197856" lon="14.13564624826082"><ele>485.4285714285714</ele><time>2026-04-15T10:53:42.001Z</time></trkpt><trkpt lat="37.49808250134959" lon="14.135563130666613"><ele>484.71428571428567</ele><time>2026-04-15T10:53:51.001Z</time></trkpt><trkpt lat="37.49810988964746" lon="14.135489037988716"><ele>484.0</ele><time>2026-04-15T10:54:09.001Z</time></trkpt><trkpt lat="37.49810777176553" lon="14.135396269209545"><ele>484.0</ele><time>2026-04-15T10:54:18.001Z</time></trkpt><trkpt lat="37.498128914174956" lon="14.135316092575897"><ele>483.99999999999994</ele><time>2026-04-15T10:54:29.001Z</time></trkpt><trkpt lat="37.498152418715435" lon="14.135234999749771"><ele>484.0</ele><time>2026-04-15T10:54:57Z</time></trkpt><trkpt lat="37.49815616829291" lon="14.1351516685911"><ele>484.0</ele><time>2026-04-15T10:55:06Z</time></trkpt><trkpt lat="37.498159708562056" lon="14.135058882577077"><ele>483.99999999999994</ele><time>2026-04-15T10:55:13Z</time></trkpt><trkpt lat="37.49818119466746" lon="14.134977738656813"><ele>484.0</ele><time>2026-04-15T10:55:20Z</time></trkpt><trkpt lat="37.4981954867987" lon="14.134884170320477"><ele>484.0</ele><time>2026-04-15T10:55:29Z</time></trkpt><trkpt lat="37.498221147096665" lon="14.134798145328483"><ele>486.4285714285714</ele><time>2026-04-15T10:55:35Z</time></trkpt><trkpt lat="37.49821904663362" lon="14.134714401152658"><ele>488.8571428571428</ele><time>2026-04-15T10:55:42Z</time></trkpt><trkpt lat="37.49823102798945" lon="14.134634603296284"><ele>491.2857142857143</ele><time>2026-04-15T10:55:50Z</time></trkpt><trkpt lat="37.49828294752731" lon="14.134577347188422"><ele>493.71428571428567</ele><time>2026-04-15T10:55:59.001Z</time></trkpt><trkpt lat="37.498343658960465" lon="14.134538098276607"><ele>496.1428571428571</ele><time>2026-04-15T10:56:08.001Z</time></trkpt><trkpt lat="37.498404183677245" lon="14.134500222983988"><ele>498.57142857142856</ele><time>2026-04-15T10:56:15.001Z</time></trkpt><trkpt lat="37.49844663605201" lon="14.134429903042655"><ele>501.0</ele><time>2026-04-15T10:56:23.001Z</time></trkpt><trkpt lat="37.498491381525966" lon="14.134360207518336"><ele>501.0</ele><time>2026-04-15T10:56:30.001Z</time></trkpt><trkpt lat="37.49849785862913" lon="14.134279767028438"><ele>501.0</ele><time>2026-04-15T10:57:52.001Z</time></trkpt><trkpt lat="37.49853399120038" lon="14.134186981259038"><ele>501.0</ele><time>2026-04-15T11:00:09.999Z</time></trkpt><trkpt lat="37.49859130234395" lon="14.13413394553728"><ele>501.0</ele><time>2026-04-15T11:00:14.999Z</time></trkpt><trkpt lat="37.49865028928784" lon="14.133988871972262"><ele>501.0</ele><time>2026-04-15T11:00:18.999Z</time></trkpt><trkpt lat="37.49864079530488" lon="14.133905823078829"><ele>501.0</ele><time>2026-04-15T11:00:23.999Z</time></trkpt><trkpt lat="37.49867568107877" lon="14.133828575785847"><ele>503.42857142857144</ele><time>2026-04-15T11:00:31.999Z</time></trkpt><trkpt lat="37.49866333752554" lon="14.133749869626964"><ele>505.85714285714283</ele><time>2026-04-15T11:00:45Z</time></trkpt><trkpt lat="37.49869989887928" lon="14.133680641604041"><ele>508.2857142857143</ele><time>2026-04-15T11:00:52Z</time></trkpt><trkpt lat="37.498702045905205" lon="14.133598933516936"><ele>510.7142857142857</ele><time>2026-04-15T11:00:57Z</time></trkpt><trkpt lat="37.49872935827391" lon="14.133519801451538"><ele>513.1428571428571</ele><time>2026-04-15T11:01:04Z</time></trkpt><trkpt lat="37.49872613248037" lon="14.133423730440695"><ele>515.5714285714286</ele><time>2026-04-15T11:01:14Z</time></trkpt><trkpt lat="37.498726968564746" lon="14.133333456701118"><ele>518.0</ele><time>2026-04-15T11:01:20Z</time></trkpt><trkpt lat="37.49873373631616" lon="14.133248500091625"><ele>519.5714285714286</ele><time>2026-04-15T11:01:30Z</time></trkpt><trkpt lat="37.498740565756115" lon="14.133162409817214"><ele>521.1428571428571</ele><time>2026-04-15T11:01:37Z</time></trkpt><trkpt lat="37.49875600675856" lon="14.133081385371353"><ele>522.7142857142858</ele><time>2026-04-15T11:01:44.001Z</time></trkpt><trkpt lat="37.498777353575974" lon="14.133000663463138"><ele>524.2857142857142</ele><time>2026-04-15T11:02:00.001Z</time></trkpt><trkpt lat="37.49883544174115" lon="14.132966029758302"><ele>525.8571428571429</ele><time>2026-04-15T11:02:07.001Z</time></trkpt><trkpt lat="37.498900573268386" lon="14.132944947258938"><ele>527.4285714285714</ele><time>2026-04-15T11:02:13Z</time></trkpt><trkpt lat="37.49893823887815" lon="14.132880072597091"><ele>529.0</ele><time>2026-04-15T11:02:18Z</time></trkpt><trkpt lat="37.49893267330784" lon="14.132785535898863"><ele>529.8571428571429</ele><time>2026-04-15T11:02:24Z</time></trkpt><trkpt lat="37.498953827140056" lon="14.13269935236121"><ele>530.7142857142857</ele><time>2026-04-15T11:02:30Z</time></trkpt><trkpt lat="37.49897043791339" lon="14.132613062914285"><ele>531.5714285714286</ele><time>2026-04-15T11:02:36Z</time></trkpt><trkpt lat="37.49899251331623" lon="14.132534672459338"><ele>532.4285714285714</ele><time>2026-04-15T11:02:42Z</time></trkpt><trkpt lat="37.499016080244125" lon="14.132458611551765"><ele>533.2857142857143</ele><time>2026-04-15T11:02:58Z</time></trkpt><trkpt lat="37.49900495388174" lon="14.132378987204564"><ele>534.1428571428571</ele><time>2026-04-15T11:03:03.001Z</time></trkpt><trkpt lat="37.49901528514592" lon="14.132294158728492"><ele>535.0</ele><time>2026-04-15T11:03:08.001Z</time></trkpt><trkpt lat="37.49903934296936" lon="14.132213355210016"><ele>538.0</ele><time>2026-04-15T11:03:20.001Z</time></trkpt><trkpt lat="37.499082303136575" lon="14.132149550031459"><ele>541.0</ele><time>2026-04-15T11:03:24.001Z</time></trkpt><trkpt lat="37.499094155826064" lon="14.132061826321971"><ele>544.0</ele><time>2026-04-15T11:03:33.001Z</time></trkpt><trkpt lat="37.499127539897856" lon="14.13198447469701"><ele>547.0</ele><time>2026-04-15T11:03:40.001Z</time></trkpt><trkpt lat="37.49916428755164" lon="14.131913881016903"><ele>550.0</ele><time>2026-04-15T11:03:47.001Z</time></trkpt><trkpt lat="37.49922646240763" lon="14.131859239037773"><ele>553.0</ele><time>2026-04-15T11:03:55.001Z</time></trkpt><trkpt lat="37.49926922916992" lon="14.131792497557978"><ele>556.0</ele><time>2026-04-15T11:04:02.001Z</time></trkpt><trkpt lat="37.499323354996974" lon="14.131750467525272"><ele>556.0</ele><time>2026-04-15T11:04:08.001Z</time></trkpt><trkpt lat="37.49936960890657" lon="14.13168955260221"><ele>556.0</ele><time>2026-04-15T11:04:14.002Z</time></trkpt><trkpt lat="37.49935409489057" lon="14.131599671329818"><ele>556.0</ele><time>2026-04-15T11:04:21.001Z</time></trkpt><trkpt lat="37.49928316096626" lon="14.131592046682549"><ele>556.0</ele><time>2026-04-15T11:04:28.001Z</time></trkpt><trkpt lat="37.4992241247913" lon="14.13163646919722"><ele>556.0</ele><time>2026-04-15T11:04:33.001Z</time></trkpt><trkpt lat="37.49915207582068" lon="14.131662464591626"><ele>556.0</ele><time>2026-04-15T11:04:40.001Z</time></trkpt><trkpt lat="37.499094954757496" lon="14.131716584177557"><ele>556.0</ele><time>2026-04-15T11:04:47.001Z</time></trkpt><trkpt lat="37.49904059536912" lon="14.131772197750347"><ele>556.0</ele><time>2026-04-15T11:04:51.001Z</time></trkpt><trkpt lat="37.49898008104706" lon="14.131818058006862"><ele>556.0</ele><time>2026-04-15T11:04:56.001Z</time></trkpt><trkpt lat="37.49891205539685" lon="14.131841096742619"><ele>556.0</ele><time>2026-04-15T11:05:01.001Z</time></trkpt><trkpt lat="37.4988521924563" lon="14.131872876337356"><ele>556.0</ele><time>2026-04-15T11:05:06.001Z</time></trkpt><trkpt lat="37.49879380565682" lon="14.131917877184542"><ele>556.0</ele><time>2026-04-15T11:05:11.001Z</time></trkpt><trkpt lat="37.49873969622098" lon="14.131972456224227"><ele>556.0</ele><time>2026-04-15T11:05:17.001Z</time></trkpt><trkpt lat="37.498677203088896" lon="14.132014703106766"><ele>556.0</ele><time>2026-04-15T11:05:59.002Z</time></trkpt><trkpt lat="37.49861898378666" lon="14.132048797006554"><ele>554.1428571428571</ele><time>2026-04-15T11:06:05.002Z</time></trkpt><trkpt lat="37.49854720703403" lon="14.132051423741801"><ele>552.2857142857143</ele><time>2026-04-15T11:06:43.002Z</time></trkpt><trkpt lat="37.49846690065619" lon="14.132084756109458"><ele>550.4285714285714</ele><time>2026-04-15T11:07:02.001Z</time></trkpt><trkpt lat="37.4984027839789" lon="14.132092874849459"><ele>548.5714285714286</ele><time>2026-04-15T11:07:09.001Z</time></trkpt><trkpt lat="37.4983308252151" lon="14.13206839000855"><ele>546.7142857142857</ele><time>2026-04-15T11:07:15.001Z</time></trkpt><trkpt lat="37.49827288659551" lon="14.132032819384763"><ele>544.8571428571429</ele><time>2026-04-15T11:07:27.001Z</time></trkpt><trkpt lat="37.49826640177993" lon="14.131938110619041"><ele>543.0</ele><time>2026-04-15T11:07:36.001Z</time></trkpt><trkpt lat="37.49829159075998" lon="14.131859364384342"><ele>543.0</ele><time>2026-04-15T11:07:47.001Z</time></trkpt><trkpt lat="37.49833190292152" lon="14.131776518922436"><ele>543.0</ele><time>2026-04-15T11:08:22.001Z</time></trkpt><trkpt lat="37.4983633500937" lon="14.131706806332224"><ele>543.0</ele><time>2026-04-15T11:08:32.002Z</time></trkpt><trkpt lat="37.49841800688357" lon="14.131658427476754"><ele>543.0</ele><time>2026-04-15T11:08:40.002Z</time></trkpt><trkpt lat="37.49846882241276" lon="14.131599016246419"><ele>543.0</ele><time>2026-04-15T11:08:48.001Z</time></trkpt><trkpt lat="37.498517203751746" lon="14.131545138423954"><ele>543.0</ele><time>2026-04-15T11:09:00.001Z</time></trkpt><trkpt lat="37.498565995726665" lon="14.131476254285591"><ele>543.0</ele><time>2026-04-15T11:09:11.001Z</time></trkpt><trkpt lat="37.49861964775402" lon="14.131424583929075"><ele>545.1428571428571</ele><time>2026-04-15T11:09:19.001Z</time></trkpt><trkpt lat="37.49869085616608" lon="14.131353620287179"><ele>547.2857142857142</ele><time>2026-04-15T11:11:01.001Z</time></trkpt><trkpt lat="37.49872151515616" lon="14.131276469685266"><ele>549.4285714285713</ele><time>2026-04-15T11:11:06.001Z</time></trkpt><trkpt lat="37.49871808989715" lon="14.131190691672263"><ele>551.5714285714286</ele><time>2026-04-15T11:11:13Z</time></trkpt><trkpt lat="37.498716413811074" lon="14.131091770875043"><ele>553.7142857142857</ele><time>2026-04-15T11:11:19Z</time></trkpt><trkpt lat="37.49870728942706" lon="14.131005992985699"><ele>555.8571428571428</ele><time>2026-04-15T11:11:34Z</time></trkpt><trkpt lat="37.49866006907595" lon="14.130937300138237"><ele>558.0</ele><time>2026-04-15T11:11:46Z</time></trkpt><trkpt lat="37.498604627339" lon="14.13089149685164"><ele>557.9999999999999</ele><time>2026-04-15T11:11:59Z</time></trkpt><trkpt lat="37.49853446195399" lon="14.13085605803657"><ele>558.0</ele><time>2026-04-15T11:12:09Z</time></trkpt><trkpt lat="37.49846987218437" lon="14.130874045766749"><ele>558.0</ele><time>2026-04-15T11:12:26Z</time></trkpt><trkpt lat="37.498406312884256" lon="14.130868400615164"><ele>558.0</ele><time>2026-04-15T11:12:31Z</time></trkpt><trkpt lat="37.498361967141996" lon="14.130807023593112"><ele>558.0</ele><time>2026-04-15T11:12:38Z</time></trkpt><trkpt lat="37.49837819983784" lon="14.13072365478421"><ele>557.9999999999999</ele><time>2026-04-15T11:13:03Z</time></trkpt><trkpt lat="37.49842879048208" lon="14.130654383916289"><ele>558.0</ele><time>2026-04-15T11:13:16Z</time></trkpt><trkpt lat="37.49847030068641" lon="14.130591887100774"><ele>559.5714285714286</ele><time>2026-04-15T11:13:23Z</time></trkpt><trkpt lat="37.49853275053045" lon="14.130557423502957"><ele>561.1428571428571</ele><time>2026-04-15T11:13:30Z</time></trkpt><trkpt lat="37.498585777220526" lon="14.130509596552237"><ele>562.7142857142858</ele><time>2026-04-15T11:13:39Z</time></trkpt><trkpt lat="37.49864394240854" lon="14.130461168577375"><ele>564.2857142857142</ele><time>2026-04-15T11:13:54Z</time></trkpt><trkpt lat="37.49871359749922" lon="14.130480210600645"><ele>565.8571428571429</ele><time>2026-04-15T11:14:02Z</time></trkpt><trkpt lat="37.4987863764957" lon="14.130497096516557"><ele>567.4285714285714</ele><time>2026-04-15T11:14:10Z</time></trkpt><trkpt lat="37.49885198243249" lon="14.13051710857488"><ele>569.0</ele><time>2026-04-15T11:14:17Z</time></trkpt><trkpt lat="37.498909893967706" lon="14.130561095229128"><ele>570.7142857142858</ele><time>2026-04-15T11:14:23Z</time></trkpt><trkpt lat="37.49897847174198" lon="14.13057982234989"><ele>572.4285714285714</ele><time>2026-04-15T11:14:29Z</time></trkpt><trkpt lat="37.49904823766152" lon="14.130594459520628"><ele>574.1428571428571</ele><time>2026-04-15T11:14:39Z</time></trkpt><trkpt lat="37.49911506409101" lon="14.13061610026223"><ele>575.8571428571429</ele><time>2026-04-15T11:14:45Z</time></trkpt><trkpt lat="37.49918005298307" lon="14.13061840068768"><ele>577.5714285714286</ele><time>2026-04-15T11:14:50Z</time></trkpt><trkpt lat="37.499257710520126" lon="14.130625600842516"><ele>579.2857142857143</ele><time>2026-04-15T11:14:57Z</time></trkpt><trkpt lat="37.499318022795194" lon="14.130662108856106"><ele>581.0</ele><time>2026-04-15T11:15:03Z</time></trkpt><trkpt lat="37.49938977752582" lon="14.130697382397276"><ele>580.0</ele><time>2026-04-15T11:15:10Z</time></trkpt><trkpt lat="37.49942348963337" lon="14.130778594655885"><ele>579.0</ele><time>2026-04-15T11:15:17Z</time></trkpt><trkpt lat="37.499443017610716" lon="14.130871259831325"><ele>578.0</ele><time>2026-04-15T11:15:23Z</time></trkpt><trkpt lat="37.499481338418576" lon="14.13094718209379"><ele>577.0</ele><time>2026-04-15T11:15:28Z</time></trkpt><trkpt lat="37.49954024737214" lon="14.130918843439435"><ele>576.0</ele><time>2026-04-15T11:15:35Z</time></trkpt><trkpt lat="37.499587928945665" lon="14.13086576359783"><ele>575.0</ele><time>2026-04-15T11:16:00Z</time></trkpt><trkpt lat="37.49960880431874" lon="14.13078736132715"><ele>574.0</ele><time>2026-04-15T11:16:06Z</time></trkpt><trkpt lat="37.49964410696319" lon="14.130694033476937"><ele>575.0</ele><time>2026-04-15T11:16:13Z</time></trkpt><trkpt lat="37.49958299845809" lon="14.130649325760025"><ele>576.0</ele><time>2026-04-15T11:16:21Z</time></trkpt><trkpt lat="37.49951972925764" lon="14.130610368492462"><ele>577.0</ele><time>2026-04-15T11:16:28Z</time></trkpt><trkpt lat="37.49945101509441" lon="14.130595514002103"><ele>578.0</ele><time>2026-04-15T11:16:32Z</time></trkpt><trkpt lat="37.499386322340385" lon="14.130555248817517"><ele>579.0</ele><time>2026-04-15T11:16:38Z</time></trkpt><trkpt lat="37.49932423554402" lon="14.130510863107386"><ele>580.0</ele><time>2026-04-15T11:16:43.999Z</time></trkpt><trkpt lat="37.49927837853961" lon="14.130454806987094"><ele>581.0</ele><time>2026-04-15T11:16:48.999Z</time></trkpt><trkpt lat="37.49922853174068" lon="14.130396272446367"><ele>581.0</ele><time>2026-04-15T11:16:54Z</time></trkpt><trkpt lat="37.4991655512031" lon="14.130352266775347"><ele>581.0</ele><time>2026-04-15T11:17:00Z</time></trkpt><trkpt lat="37.49910998891392" lon="14.130311273889115"><ele>581.0</ele><time>2026-04-15T11:17:05Z</time></trkpt><trkpt lat="37.49905440135752" lon="14.130270376938393"><ele>581.0</ele><time>2026-04-15T11:17:09Z</time></trkpt><trkpt lat="37.4989926170711" lon="14.130246914648467"><ele>581.0</ele><time>2026-04-15T11:17:15Z</time></trkpt><trkpt lat="37.49892855261347" lon="14.13024125656562"><ele>581.0</ele><time>2026-04-15T11:17:20Z</time></trkpt><trkpt lat="37.49886177166944" lon="14.13019556279218"><ele>581.0</ele><time>2026-04-15T11:17:28Z</time></trkpt><trkpt lat="37.498799667203976" lon="14.130146513466388"><ele>579.2857142857143</ele><time>2026-04-15T11:17:33Z</time></trkpt><trkpt lat="37.49873581223719" lon="14.130114602615091"><ele>577.5714285714286</ele><time>2026-04-15T11:17:38Z</time></trkpt><trkpt lat="37.49867079340231" lon="14.13009970221494"><ele>575.8571428571429</ele><time>2026-04-15T11:17:43Z</time></trkpt><trkpt lat="37.49860101039854" lon="14.130101531591386"><ele>574.1428571428571</ele><time>2026-04-15T11:17:48Z</time></trkpt><trkpt lat="37.49853288756762" lon="14.130109586019843"><ele>572.4285714285714</ele><time>2026-04-15T11:17:52Z</time></trkpt><trkpt lat="37.498461693168295" lon="14.130108495095897"><ele>570.7142857142858</ele><time>2026-04-15T11:17:57Z</time></trkpt><trkpt lat="37.49838884690449" lon="14.130112667055972"><ele>569.0</ele><time>2026-04-15T11:18:02Z</time></trkpt><trkpt lat="37.49831528323449" lon="14.130117262854272"><ele>569.0000000000001</ele><time>2026-04-15T11:18:07Z</time></trkpt><trkpt lat="37.49824453181347" lon="14.130104330756826"><ele>569.0</ele><time>2026-04-15T11:18:16Z</time></trkpt><trkpt lat="37.498170231955335" lon="14.130105459560056"><ele>569.0</ele><time>2026-04-15T11:18:21Z</time></trkpt><trkpt lat="37.49809983465866" lon="14.130113071095048"><ele>569.0</ele><time>2026-04-15T11:18:26Z</time></trkpt><trkpt lat="37.4980271725241" lon="14.130130959806696"><ele>569.0</ele><time>2026-04-15T11:18:31Z</time></trkpt><trkpt lat="37.498011168974465" lon="14.13021747278976"><ele>569.0000000000001</ele><time>2026-04-15T11:19:26Z</time></trkpt><trkpt lat="37.4979583791752" lon="14.130155938416697"><ele>569.0</ele><time>2026-04-15T11:19:28Z</time></trkpt><trkpt lat="37.49792479198243" lon="14.130228741011825"><ele>566.2857142857143</ele><time>2026-04-15T11:19:31Z</time></trkpt><trkpt lat="37.4978754332031" lon="14.130280015712911"><ele>563.5714285714286</ele><time>2026-04-15T11:19:37Z</time></trkpt><trkpt lat="37.49780138724616" lon="14.13031325953546"><ele>560.8571428571429</ele><time>2026-04-15T11:19:44Z</time></trkpt><trkpt lat="37.49773732063912" lon="14.130292897553936"><ele>558.1428571428571</ele><time>2026-04-15T11:19:47Z</time></trkpt><trkpt lat="37.497709623107" lon="14.130214719050759"><ele>555.4285714285714</ele><time>2026-04-15T11:19:54Z</time></trkpt><trkpt lat="37.49770971352064" lon="14.13012694933245"><ele>552.7142857142858</ele><time>2026-04-15T11:20:00Z</time></trkpt><trkpt lat="37.49773621964884" lon="14.130054793798918"><ele>550.0</ele><time>2026-04-15T11:20:22Z</time></trkpt><trkpt lat="37.49777746973041" lon="14.129994838101805"><ele>550.0</ele><time>2026-04-15T11:20:48.999Z</time></trkpt><trkpt lat="37.49782019959956" lon="14.129922714424874"><ele>550.0</ele><time>2026-04-15T11:20:56.999Z</time></trkpt><trkpt lat="37.497857002749" lon="14.129853664921901"><ele>550.0</ele><time>2026-04-15T11:21:03.999Z</time></trkpt><trkpt lat="37.497904100878266" lon="14.129796900253645"><ele>550.0</ele><time>2026-04-15T11:21:13.999Z</time></trkpt><trkpt lat="37.497921081362854" lon="14.129712322855418"><ele>550.0</ele><time>2026-04-15T11:21:23.999Z</time></trkpt><trkpt lat="37.49793820211525" lon="14.129633338819456"><ele>550.0</ele><time>2026-04-15T11:21:32.999Z</time></trkpt><trkpt lat="37.497941906215445" lon="14.12955101251657"><ele>550.0</ele><time>2026-04-15T11:21:38.999Z</time></trkpt><trkpt lat="37.49791215946134" lon="14.129476050575255"><ele>551.2857142857143</ele><time>2026-04-15T11:21:44.999Z</time></trkpt><trkpt lat="37.49789738945266" lon="14.129394493817443"><ele>552.5714285714286</ele><time>2026-04-15T11:21:49.999Z</time></trkpt><trkpt lat="37.497867649631104" lon="14.129309695257803"><ele>553.8571428571429</ele><time>2026-04-15T11:21:56.999Z</time></trkpt><trkpt lat="37.49781329751881" lon="14.129253178480932"><ele>555.1428571428571</ele><time>2026-04-15T11:22:01.999Z</time></trkpt><trkpt lat="37.49773931076583" lon="14.129225606103288"><ele>556.4285714285714</ele><time>2026-04-15T11:22:06.999Z</time></trkpt><trkpt lat="37.497675356698814" lon="14.129179688825932"><ele>557.7142857142858</ele><time>2026-04-15T11:22:11.999Z</time></trkpt><trkpt lat="37.49766500195984" lon="14.129268506495064"><ele>559.0</ele><time>2026-04-15T11:22:36.999Z</time></trkpt><trkpt lat="37.4976646751589" lon="14.129348984444752"><ele>559.0</ele><time>2026-04-15T11:22:42.999Z</time></trkpt><trkpt lat="37.49762663220909" lon="14.129432541230528"><ele>559.0</ele><time>2026-04-15T11:22:46.999Z</time></trkpt><trkpt lat="37.49759075729488" lon="14.129499110469949"><ele>559.0</ele><time>2026-04-15T11:22:53.999Z</time></trkpt><trkpt lat="37.49755786735134" lon="14.129579304177415"><ele>559.0</ele><time>2026-04-15T11:23:05.999Z</time></trkpt><trkpt lat="37.49751376957543" lon="14.1296522170981"><ele>559.0</ele><time>2026-04-15T11:23:13.999Z</time></trkpt><trkpt lat="37.497464507435346" lon="14.12971759386217"><ele>559.0</ele><time>2026-04-15T11:23:23.999Z</time></trkpt><trkpt lat="37.49740518476957" lon="14.129744774912806"><ele>559.0</ele><time>2026-04-15T11:23:29.999Z</time></trkpt><trkpt lat="37.49734569285757" lon="14.129796963969312"><ele>559.0</ele><time>2026-04-15T11:23:48Z</time></trkpt><trkpt lat="37.49728738378375" lon="14.129850711660135"><ele>559.0</ele><time>2026-04-15T11:23:58Z</time></trkpt><trkpt lat="37.49721879353734" lon="14.129905993077495"><ele>559.0</ele><time>2026-04-15T11:24:08Z</time></trkpt><trkpt lat="37.497157470681" lon="14.129948953081863"><ele>559.0</ele><time>2026-04-15T11:24:14Z</time></trkpt><trkpt lat="37.49709857841693" lon="14.129992979853803"><ele>559.0</ele><time>2026-04-15T11:24:18Z</time></trkpt><trkpt lat="37.49706610297654" lon="14.13007195080562"><ele>559.0</ele><time>2026-04-15T11:24:24Z</time></trkpt><trkpt lat="37.49707498505677" lon="14.130162484908626"><ele>559.0</ele><time>2026-04-15T11:24:30Z</time></trkpt><trkpt lat="37.49713816334972" lon="14.130217449467946"><ele>557.7142857142858</ele><time>2026-04-15T11:24:36Z</time></trkpt><trkpt lat="37.49720581998339" lon="14.130252741127634"><ele>556.4285714285714</ele><time>2026-04-15T11:24:42Z</time></trkpt><trkpt lat="37.49726961165371" lon="14.1302832563051"><ele>555.1428571428571</ele><time>2026-04-15T11:24:54Z</time></trkpt><trkpt lat="37.497271696735375" lon="14.130363211185717"><ele>553.8571428571429</ele><time>2026-04-15T11:25:14Z</time></trkpt><trkpt lat="37.497213551576706" lon="14.130401619607277"><ele>552.5714285714286</ele><time>2026-04-15T11:25:40Z</time></trkpt><trkpt lat="37.49717088925471" lon="14.130476020805375"><ele>551.2857142857143</ele><time>2026-04-15T11:25:44Z</time></trkpt><trkpt lat="37.497149000892385" lon="14.130567190947824"><ele>550.0</ele><time>2026-04-15T11:25:49Z</time></trkpt><trkpt lat="37.49714739220239" lon="14.130647818124627"><ele>548.0</ele><time>2026-04-15T11:25:55Z</time></trkpt><trkpt lat="37.49708470887123" lon="14.1306877926226"><ele>546.0</ele><time>2026-04-15T11:26:06Z</time></trkpt><trkpt lat="37.497011879008085" lon="14.13071106292065"><ele>544.0</ele><time>2026-04-15T11:26:11Z</time></trkpt><trkpt lat="37.496987926812814" lon="14.130788919715375"><ele>542.0</ele><time>2026-04-15T11:26:21Z</time></trkpt><trkpt lat="37.49694831010261" lon="14.130855505941163"><ele>540.0</ele><time>2026-04-15T11:26:35Z</time></trkpt><trkpt lat="37.496893081284306" lon="14.130908534515259"><ele>538.0</ele><time>2026-04-15T11:26:41Z</time></trkpt><trkpt lat="37.49682957437344" lon="14.13092962625536"><ele>536.0</ele><time>2026-04-15T11:26:46Z</time></trkpt><trkpt lat="37.49678178313728" lon="14.130876977987482"><ele>536.0</ele><time>2026-04-15T11:26:52Z</time></trkpt><trkpt lat="37.496745417348606" lon="14.130795717830116"><ele>536.0</ele><time>2026-04-15T11:27:03Z</time></trkpt><trkpt lat="37.49668381588261" lon="14.13076382410743"><ele>536.0</ele><time>2026-04-15T11:27:09Z</time></trkpt><trkpt lat="37.49663361089979" lon="14.130705529332602"><ele>536.0</ele><time>2026-04-15T11:27:16Z</time></trkpt><trkpt lat="37.496565558339555" lon="14.130657581254628"><ele>536.0</ele><time>2026-04-15T11:27:22Z</time></trkpt><trkpt lat="37.4965159846016" lon="14.130605544112546"><ele>536.0</ele><time>2026-04-15T11:27:28Z</time></trkpt><trkpt lat="37.49646252029811" lon="14.130551711450176"><ele>536.0</ele><time>2026-04-15T11:27:34Z</time></trkpt><trkpt lat="37.49640475407141" lon="14.13048983369866"><ele>536.0</ele><time>2026-04-15T11:27:39Z</time></trkpt><trkpt lat="37.49636371380719" lon="14.1304141283613"><ele>536.0</ele><time>2026-04-15T11:27:45Z</time></trkpt><trkpt lat="37.49634036863145" lon="14.130337752439589"><ele>536.0</ele><time>2026-04-15T11:27:51Z</time></trkpt><trkpt lat="37.4963214323317" lon="14.130259075234168"><ele>536.0</ele><time>2026-04-15T11:28:08Z</time></trkpt><trkpt lat="37.49637631203036" lon="14.130180693700307"><ele>536.0</ele><time>2026-04-15T11:28:48Z</time></trkpt><trkpt lat="37.49644490023879" lon="14.13016406814747"><ele>536.0</ele><time>2026-04-15T11:29:05Z</time></trkpt><trkpt lat="37.49651212502538" lon="14.130166918495"><ele>536.0</ele><time>2026-04-15T11:29:15Z</time></trkpt><trkpt lat="37.49656612801253" lon="14.130124405710143"><ele>536.0</ele><time>2026-04-15T11:29:24Z</time></trkpt><trkpt lat="37.49651316099264" lon="14.130073920275574"><ele>536.0</ele><time>2026-04-15T11:29:33.999Z</time></trkpt><trkpt lat="37.49644227805854" lon="14.130052853677496"><ele>536.0</ele><time>2026-04-15T11:29:39.999Z</time></trkpt><trkpt lat="37.49637814106009" lon="14.13001864708314"><ele>536.0</ele><time>2026-04-15T11:29:46.999Z</time></trkpt><trkpt lat="37.49630924320835" lon="14.130021557163989"><ele>536.0</ele><time>2026-04-15T11:29:59Z</time></trkpt><trkpt lat="37.49624576161266" lon="14.130006188027348"><ele>536.0</ele><time>2026-04-15T11:30:05Z</time></trkpt><trkpt lat="37.49618360320048" lon="14.129957676582421"><ele>536.0</ele><time>2026-04-15T11:30:11Z</time></trkpt><trkpt lat="37.496136623372244" lon="14.129896198618066"><ele>535.4285714285714</ele><time>2026-04-15T11:30:17Z</time></trkpt><trkpt lat="37.49615658959118" lon="14.129815505701309"><ele>534.8571428571429</ele><time>2026-04-15T11:30:26Z</time></trkpt><trkpt lat="37.49615628838791" lon="14.129729040388778"><ele>534.2857142857142</ele><time>2026-04-15T11:30:30Z</time></trkpt><trkpt lat="37.496225007536374" lon="14.129739140420678"><ele>533.7142857142858</ele><time>2026-04-15T11:30:39Z</time></trkpt><trkpt lat="37.49628921013057" lon="14.129744628698536"><ele>533.1428571428571</ele><time>2026-04-15T11:30:47Z</time></trkpt><trkpt lat="37.496352333648204" lon="14.129768984061572"><ele>532.5714285714286</ele><time>2026-04-15T11:30:55Z</time></trkpt><trkpt lat="37.49641855536801" lon="14.129778996466003"><ele>532.0</ele><time>2026-04-15T11:31:01Z</time></trkpt><trkpt lat="37.496471450929164" lon="14.129824292255035"><ele>532.5714285714286</ele><time>2026-04-15T11:31:07Z</time></trkpt><trkpt lat="37.4965402786288" lon="14.129844462101651"><ele>533.1428571428571</ele><time>2026-04-15T11:31:13Z</time></trkpt><trkpt lat="37.496580732166024" lon="14.129907066744654"><ele>533.7142857142858</ele><time>2026-04-15T11:31:19Z</time></trkpt><trkpt lat="37.49662573683428" lon="14.12996264852946"><ele>534.2857142857142</ele><time>2026-04-15T11:31:25Z</time></trkpt><trkpt lat="37.49669128128438" lon="14.129988888083833"><ele>534.8571428571429</ele><time>2026-04-15T11:31:31Z</time></trkpt><trkpt lat="37.49676183290925" lon="14.129991286543632"><ele>535.4285714285714</ele><time>2026-04-15T11:31:37.999Z</time></trkpt><trkpt lat="37.49682184561873" lon="14.129957713919612"><ele>536.0</ele><time>2026-04-15T11:31:53Z</time></trkpt><trkpt lat="37.496883556548255" lon="14.129923742798569"><ele>537.8571428571429</ele><time>2026-04-15T11:32:06Z</time></trkpt><trkpt lat="37.496921073696896" lon="14.129855871337895"><ele>539.7142857142857</ele><time>2026-04-15T11:32:34Z</time></trkpt><trkpt lat="37.49696598942298" lon="14.129795582723684"><ele>541.5714285714286</ele><time>2026-04-15T11:32:42Z</time></trkpt><trkpt lat="37.497019343575786" lon="14.1297451325259"><ele>543.4285714285714</ele><time>2026-04-15T11:32:49Z</time></trkpt><trkpt lat="37.49705854577882" lon="14.12967854381976"><ele>545.2857142857143</ele><time>2026-04-15T11:32:56Z</time></trkpt><trkpt lat="37.49708518553514" lon="14.129606129785635"><ele>547.1428571428571</ele><time>2026-04-15T11:33:11Z</time></trkpt><trkpt lat="37.49712751041058" lon="14.129526791323729"><ele>549.0</ele><time>2026-04-15T11:33:24Z</time></trkpt><trkpt lat="37.49714768668872" lon="14.129440219358663"><ele>550.4285714285714</ele><time>2026-04-15T11:33:39Z</time></trkpt><trkpt lat="37.49716532982122" lon="14.12936069181494"><ele>551.8571428571429</ele><time>2026-04-15T11:33:47Z</time></trkpt><trkpt lat="37.497187403804936" lon="14.129274066376684"><ele>553.2857142857143</ele><time>2026-04-15T11:33:56Z</time></trkpt><trkpt lat="37.497235855164405" lon="14.129207664322152"><ele>554.7142857142858</ele><time>2026-04-15T11:34:03Z</time></trkpt><trkpt lat="37.497293211584896" lon="14.129170461593956"><ele>556.1428571428572</ele><time>2026-04-15T11:34:09Z</time></trkpt><trkpt lat="37.49734575531008" lon="14.12911851838385"><ele>557.5714285714286</ele><time>2026-04-15T11:34:17Z</time></trkpt><trkpt lat="37.497390786887834" lon="14.129050017795565"><ele>559.0</ele><time>2026-04-15T11:34:26Z</time></trkpt><trkpt lat="37.49734593026164" lon="14.128993876804309"><ele>558.4285714285714</ele><time>2026-04-15T11:35:00Z</time></trkpt><trkpt lat="37.497279831415874" lon="14.128997420943273"><ele>557.8571428571429</ele><time>2026-04-15T11:35:09Z</time></trkpt><trkpt lat="37.497196280931455" lon="14.129007995257266"><ele>557.2857142857143</ele><time>2026-04-15T11:35:15Z</time></trkpt><trkpt lat="37.497123731529854" lon="14.12904371283744"><ele>556.7142857142858</ele><time>2026-04-15T11:35:26Z</time></trkpt><trkpt lat="37.49705658791848" lon="14.129048379787202"><ele>556.1428571428571</ele><time>2026-04-15T11:35:32.001Z</time></trkpt><trkpt lat="37.49699247080429" lon="14.12904166564167"><ele>555.5714285714287</ele><time>2026-04-15T11:35:37.001Z</time></trkpt><trkpt lat="37.49692773113442" lon="14.129057509857747"><ele>555.0</ele><time>2026-04-15T11:35:48.001Z</time></trkpt><trkpt lat="37.496863448619614" lon="14.12903808853326"><ele>555.0000000000001</ele><time>2026-04-15T11:35:58.001Z</time></trkpt><trkpt lat="37.496800116624456" lon="14.129033289632591"><ele>555.0</ele><time>2026-04-15T11:36:03Z</time></trkpt><trkpt lat="37.496750174410835" lon="14.129084676221067"><ele>555.0</ele><time>2026-04-15T11:36:08Z</time></trkpt><trkpt lat="37.49673575513994" lon="14.12917780315694"><ele>555.0</ele><time>2026-04-15T11:36:14Z</time></trkpt><trkpt lat="37.49674639683081" lon="14.129256246341395"><ele>555.0</ele><time>2026-04-15T11:36:18Z</time></trkpt><trkpt lat="37.49674407363821" lon="14.129339853570649"><ele>555.0000000000001</ele><time>2026-04-15T11:36:24Z</time></trkpt><trkpt lat="37.49672247720645" lon="14.129418936764115"><ele>555.0</ele><time>2026-04-15T11:38:30Z</time></trkpt><trkpt lat="37.49667559568717" lon="14.129481365583587"><ele>554.1428571428572</ele><time>2026-04-15T11:38:39Z</time></trkpt><trkpt lat="37.49660855188744" lon="14.129495783010922"><ele>553.2857142857143</ele><time>2026-04-15T11:38:47Z</time></trkpt><trkpt lat="37.496570768894806" lon="14.129411435067752"><ele>552.4285714285714</ele><time>2026-04-15T11:38:53Z</time></trkpt><trkpt lat="37.49653805102736" lon="14.129341416603388"><ele>551.5714285714287</ele><time>2026-04-15T11:38:58Z</time></trkpt><trkpt lat="37.496513627022814" lon="14.129267635791953"><ele>550.7142857142858</ele><time>2026-04-15T11:39:03Z</time></trkpt><trkpt lat="37.496474638415776" lon="14.129204913679107"><ele>549.8571428571429</ele><time>2026-04-15T11:39:11Z</time></trkpt><trkpt lat="37.49644083365299" lon="14.129131628619321"><ele>549.0</ele><time>2026-04-15T11:39:17Z</time></trkpt><trkpt lat="37.49639129879187" lon="14.129060623909526"><ele>548.4285714285714</ele><time>2026-04-15T11:39:25Z</time></trkpt><trkpt lat="37.49633605622552" lon="14.129007945593845"><ele>547.8571428571429</ele><time>2026-04-15T11:39:31Z</time></trkpt><trkpt lat="37.4962802905617" lon="14.128954452301432"><ele>547.2857142857143</ele><time>2026-04-15T11:39:39Z</time></trkpt><trkpt lat="37.49621767964558" lon="14.128906261924406"><ele>546.7142857142858</ele><time>2026-04-15T11:39:44Z</time></trkpt><trkpt lat="37.496173322378354" lon="14.128843839358732"><ele>546.1428571428572</ele><time>2026-04-15T11:39:49Z</time></trkpt><trkpt lat="37.49610391302915" lon="14.128815862021876"><ele>545.5714285714286</ele><time>2026-04-15T11:39:55Z</time></trkpt><trkpt lat="37.49604195969116" lon="14.128772326182098"><ele>545.0</ele><time>2026-04-15T11:40:00.001Z</time></trkpt><trkpt lat="37.495977500360375" lon="14.128778490170916"><ele>545.0</ele><time>2026-04-15T11:40:05.001Z</time></trkpt><trkpt lat="37.49591314969312" lon="14.12874538896024"><ele>545.0</ele><time>2026-04-15T11:40:11.001Z</time></trkpt><trkpt lat="37.495844519347735" lon="14.128744848171314"><ele>545.0</ele><time>2026-04-15T11:40:29Z</time></trkpt><trkpt lat="37.495777415765886" lon="14.12872159032608"><ele>545.0</ele><time>2026-04-15T11:40:34Z</time></trkpt><trkpt lat="37.495710868367915" lon="14.128693538473987"><ele>545.0</ele><time>2026-04-15T11:40:44Z</time></trkpt><trkpt lat="37.49574415655269" lon="14.128613378177493"><ele>545.0</ele><time>2026-04-15T11:40:49Z</time></trkpt><trkpt lat="37.49578902891742" lon="14.128538955192628"><ele>545.0</ele><time>2026-04-15T11:40:59Z</time></trkpt><trkpt lat="37.495844285469126" lon="14.128483726114087"><ele>545.0</ele><time>2026-04-15T11:41:28Z</time></trkpt><trkpt lat="37.495881172310526" lon="14.128408963635165"><ele>545.0</ele><time>2026-04-15T11:41:33Z</time></trkpt><trkpt lat="37.495935281841355" lon="14.128343023874361"><ele>545.0</ele><time>2026-04-15T11:41:42Z</time></trkpt><trkpt lat="37.4959962897319" lon="14.128302773497746"><ele>545.0</ele><time>2026-04-15T11:41:47Z</time></trkpt><trkpt lat="37.49604835021577" lon="14.128240814115406"><ele>545.0</ele><time>2026-04-15T11:41:55Z</time></trkpt><trkpt lat="37.496019473064194" lon="14.128160799260787"><ele>545.0</ele><time>2026-04-15T11:42:02Z</time></trkpt><trkpt lat="37.49596452643106" lon="14.128098544573103"><ele>545.0</ele><time>2026-04-15T11:42:08.999Z</time></trkpt><trkpt lat="37.49590431020349" lon="14.128059901070312"><ele>546.1428571428571</ele><time>2026-04-15T11:42:14.999Z</time></trkpt><trkpt lat="37.49584470830152" lon="14.12801966742137"><ele>547.2857142857143</ele><time>2026-04-15T11:42:20.999Z</time></trkpt><trkpt lat="37.49578624130824" lon="14.127971139908283"><ele>548.4285714285714</ele><time>2026-04-15T11:42:27.999Z</time></trkpt><trkpt lat="37.49572552625571" lon="14.1279928333555"><ele>549.5714285714286</ele><time>2026-04-15T11:42:42Z</time></trkpt><trkpt lat="37.49568945581633" lon="14.128064122133797"><ele>550.7142857142858</ele><time>2026-04-15T11:42:49Z</time></trkpt><trkpt lat="37.49564443957168" lon="14.128121822249401"><ele>551.8571428571429</ele><time>2026-04-15T11:42:56Z</time></trkpt><trkpt lat="37.4955880019792" lon="14.128163233430454"><ele>553.0</ele><time>2026-04-15T11:43:03Z</time></trkpt><trkpt lat="37.49552048510927" lon="14.12817773336834"><ele>553.0</ele><time>2026-04-15T11:43:08Z</time></trkpt><trkpt lat="37.495453694017364" lon="14.128169436907648"><ele>553.0</ele><time>2026-04-15T11:43:14Z</time></trkpt><trkpt lat="37.49541297321059" lon="14.128248936669777"><ele>553.0</ele><time>2026-04-15T11:43:20Z</time></trkpt><trkpt lat="37.49544649945246" lon="14.128316165647579"><ele>553.0</ele><time>2026-04-15T11:43:25Z</time></trkpt><trkpt lat="37.49547660693082" lon="14.128403024237748"><ele>553.0</ele><time>2026-04-15T11:43:29Z</time></trkpt><trkpt lat="37.495440350887655" lon="14.128470084235605"><ele>553.0</ele><time>2026-04-15T11:43:32Z</time></trkpt><trkpt lat="37.49537441134812" lon="14.128482845539981"><ele>553.0</ele><time>2026-04-15T11:43:37Z</time></trkpt><trkpt lat="37.49531404968036" lon="14.128429550474355"><ele>551.1428571428571</ele><time>2026-04-15T11:43:42Z</time></trkpt><trkpt lat="37.495253200149854" lon="14.12839704413647"><ele>549.2857142857142</ele><time>2026-04-15T11:43:46Z</time></trkpt><trkpt lat="37.49519242632227" lon="14.128341792132773"><ele>547.4285714285714</ele><time>2026-04-15T11:43:51Z</time></trkpt><trkpt lat="37.495136995188595" lon="14.128287317397039"><ele>545.5714285714286</ele><time>2026-04-15T11:43:57Z</time></trkpt><trkpt lat="37.49508788598995" lon="14.128230968197911"><ele>543.7142857142857</ele><time>2026-04-15T11:44:04Z</time></trkpt><trkpt lat="37.49505789714736" lon="14.12815977488826"><ele>541.8571428571429</ele><time>2026-04-15T11:44:11Z</time></trkpt><trkpt lat="37.49500572326129" lon="14.128107756492383"><ele>540.0</ele><time>2026-04-15T11:44:16.999Z</time></trkpt><trkpt lat="37.49501168572868" lon="14.128020789934771"><ele>540.0</ele><time>2026-04-15T11:44:21.999Z</time></trkpt><trkpt lat="37.495056909466626" lon="14.127964950263944"><ele>540.0</ele><time>2026-04-15T11:44:28Z</time></trkpt><trkpt lat="37.49512137170296" lon="14.127923338006662"><ele>540.0</ele><time>2026-04-15T11:44:34Z</time></trkpt><trkpt lat="37.49516577232373" lon="14.127866395561822"><ele>540.0</ele><time>2026-04-15T11:44:42Z</time></trkpt><trkpt lat="37.49522244563441" lon="14.127802119460458"><ele>540.0</ele><time>2026-04-15T11:44:50Z</time></trkpt><trkpt lat="37.4953011142263" lon="14.127739082514013"><ele>540.0</ele><time>2026-04-15T11:44:56Z</time></trkpt><trkpt lat="37.49537228033399" lon="14.127666068897561"><ele>540.0</ele><time>2026-04-15T11:45:04Z</time></trkpt><trkpt lat="37.495369419623" lon="14.127580547457255"><ele>540.0</ele><time>2026-04-15T11:45:12Z</time></trkpt><trkpt lat="37.49529956542727" lon="14.127569853947712"><ele>540.0</ele><time>2026-04-15T11:45:15Z</time></trkpt><trkpt lat="37.49525671918124" lon="14.127505114346393"><ele>540.0</ele><time>2026-04-15T11:45:21Z</time></trkpt><trkpt lat="37.49519103375203" lon="14.12747673947891"><ele>540.0</ele><time>2026-04-15T11:45:25Z</time></trkpt><trkpt lat="37.49513903966586" lon="14.127427526786905"><ele>540.0</ele><time>2026-04-15T11:45:30Z</time></trkpt><trkpt lat="37.495100604266696" lon="14.127363269868455"><ele>540.0</ele><time>2026-04-15T11:45:34Z</time></trkpt><trkpt lat="37.4950757396922" lon="14.127283956266304"><ele>541.2857142857142</ele><time>2026-04-15T11:45:40Z</time></trkpt><trkpt lat="37.49501994440577" lon="14.127214935056337"><ele>542.5714285714286</ele><time>2026-04-15T11:45:46Z</time></trkpt><trkpt lat="37.49496744642675" lon="14.127167376081317"><ele>543.8571428571429</ele><time>2026-04-15T11:45:51Z</time></trkpt><trkpt lat="37.49491312949773" lon="14.127108280309294"><ele>545.1428571428571</ele><time>2026-04-15T11:45:58Z</time></trkpt><trkpt lat="37.49486179280964" lon="14.12706054409431"><ele>546.4285714285714</ele><time>2026-04-15T11:46:03Z</time></trkpt><trkpt lat="37.494809869329124" lon="14.127003292358237"><ele>547.7142857142857</ele><time>2026-04-15T11:46:09Z</time></trkpt><trkpt lat="37.49476859999565" lon="14.126922239753643"><ele>549.0</ele><time>2026-04-15T11:46:15Z</time></trkpt><trkpt lat="37.494733186920605" lon="14.126844902557135"><ele>549.0</ele><time>2026-04-15T11:46:21Z</time></trkpt><trkpt lat="37.49470579520494" lon="14.126773427353195"><ele>549.0</ele><time>2026-04-15T11:46:25Z</time></trkpt><trkpt lat="37.49470946211651" lon="14.126678498643717"><ele>549.0</ele><time>2026-04-15T11:46:28Z</time></trkpt><trkpt lat="37.4947006008781" lon="14.126580157610864"><ele>549.0</ele><time>2026-04-15T11:46:31Z</time></trkpt><trkpt lat="37.49467573746027" lon="14.12649379907955"><ele>549.0</ele><time>2026-04-15T11:46:34Z</time></trkpt><trkpt lat="37.494667679768796" lon="14.126412169833289"><ele>549.0</ele><time>2026-04-15T11:46:39Z</time></trkpt><trkpt lat="37.494628957489766" lon="14.126322623171598"><ele>549.0</ele><time>2026-04-15T11:46:43Z</time></trkpt><trkpt lat="37.49461979363363" lon="14.126240602639232"><ele>548.2857142857142</ele><time>2026-04-15T11:46:49Z</time></trkpt><trkpt lat="37.4946079587005" lon="14.12616230582124"><ele>547.5714285714286</ele><time>2026-04-15T11:46:55Z</time></trkpt><trkpt lat="37.49456761327413" lon="14.126076066715576"><ele>546.8571428571429</ele><time>2026-04-15T11:47:03Z</time></trkpt><trkpt lat="37.49452998562453" lon="14.126010933517987"><ele>546.1428571428571</ele><time>2026-04-15T11:47:09Z</time></trkpt><trkpt lat="37.49449990297706" lon="14.125936711670283"><ele>545.4285714285714</ele><time>2026-04-15T11:47:15Z</time></trkpt><trkpt lat="37.494460354613615" lon="14.125858696483496"><ele>544.7142857142857</ele><time>2026-04-15T11:47:21Z</time></trkpt><trkpt lat="37.49441937614532" lon="14.125786374583777"><ele>544.0</ele><time>2026-04-15T11:47:27Z</time></trkpt><trkpt lat="37.494384665508655" lon="14.125714104530356"><ele>543.9999999999999</ele><time>2026-04-15T11:47:32Z</time></trkpt><trkpt lat="37.494350364992535" lon="14.125640439762842"><ele>544.0</ele><time>2026-04-15T11:47:38Z</time></trkpt><trkpt lat="37.49432701799871" lon="14.125561321274512"><ele>544.0</ele><time>2026-04-15T11:47:44Z</time></trkpt><trkpt lat="37.49431346530453" lon="14.125478543180842"><ele>544.0</ele><time>2026-04-15T11:47:50Z</time></trkpt><trkpt lat="37.494298500255354" lon="14.125379560677313"><ele>544.0</ele><time>2026-04-15T11:47:56Z</time></trkpt><trkpt lat="37.494272415359916" lon="14.125305697521704"><ele>543.9999999999999</ele><time>2026-04-15T11:48:02Z</time></trkpt><trkpt lat="37.49424509238478" lon="14.12522116543389"><ele>544.0</ele><time>2026-04-15T11:48:08Z</time></trkpt><trkpt lat="37.4941812514248" lon="14.125192062710267"><ele>543.9999999999999</ele><time>2026-04-15T11:48:15Z</time></trkpt><trkpt lat="37.494116339003995" lon="14.125220130839667"><ele>544.0</ele><time>2026-04-15T11:48:22Z</time></trkpt><trkpt lat="37.49410719768235" lon="14.125302893029618"><ele>544.0</ele><time>2026-04-15T11:48:32Z</time></trkpt><trkpt lat="37.49410279152003" lon="14.125393146004921"><ele>544.0</ele><time>2026-04-15T11:48:39Z</time></trkpt><trkpt lat="37.49410971612013" lon="14.125477396024573"><ele>544.0</ele><time>2026-04-15T11:48:45Z</time></trkpt><trkpt lat="37.49413424432493" lon="14.125553932230103"><ele>543.9999999999999</ele><time>2026-04-15T11:48:51Z</time></trkpt><trkpt lat="37.49414707129259" lon="14.125643880142555"><ele>544.0</ele><time>2026-04-15T11:48:58Z</time></trkpt><trkpt lat="37.49416604035169" lon="14.12572757128663"><ele>543.9999999999999</ele><time>2026-04-15T11:49:04Z</time></trkpt><trkpt lat="37.4941906482187" lon="14.125810237954068"><ele>544.0</ele><time>2026-04-15T11:49:10Z</time></trkpt><trkpt lat="37.49417985780613" lon="14.125889727171794"><ele>544.0</ele><time>2026-04-15T11:49:15Z</time></trkpt><trkpt lat="37.49417826199295" lon="14.125987631766026"><ele>544.0</ele><time>2026-04-15T11:49:22Z</time></trkpt><trkpt lat="37.494174097287754" lon="14.126085715520931"><ele>544.0</ele><time>2026-04-15T11:49:28Z</time></trkpt><trkpt lat="37.4942065005385" lon="14.126167428773932"><ele>543.9999999999999</ele><time>2026-04-15T11:49:33Z</time></trkpt><trkpt lat="37.494248115064536" lon="14.126233762229724"><ele>544.0</ele><time>2026-04-15T11:49:40Z</time></trkpt><trkpt lat="37.49429283804654" lon="14.126301237763997"><ele>543.9999999999999</ele><time>2026-04-15T11:49:48Z</time></trkpt><trkpt lat="37.49433458349001" lon="14.126367702987576"><ele>544.0</ele><time>2026-04-15T11:49:54Z</time></trkpt><trkpt lat="37.494366922284485" lon="14.126441684965851"><ele>544.0</ele><time>2026-04-15T11:50:00Z</time></trkpt><trkpt lat="37.49439701464319" lon="14.126514255074063"><ele>544.0</ele><time>2026-04-15T11:50:06Z</time></trkpt><trkpt lat="37.49440275866663" lon="14.12659901916077"><ele>544.0</ele><time>2026-04-15T11:50:12Z</time></trkpt><trkpt lat="37.4944316364746" lon="14.126684935604409"><ele>543.9999999999999</ele><time>2026-04-15T11:50:19Z</time></trkpt><trkpt lat="37.494440153335354" lon="14.126767115146901"><ele>544.0</ele><time>2026-04-15T11:50:24Z</time></trkpt><trkpt lat="37.494390704146916" lon="14.126854051746834"><ele>542.5714285714286</ele><time>2026-04-15T11:50:30.998Z</time></trkpt><trkpt lat="37.49431544597785" lon="14.126849109731927"><ele>541.1428571428571</ele><time>2026-04-15T11:50:35.999Z</time></trkpt><trkpt lat="37.494254310685626" lon="14.126807555427208"><ele>539.7142857142858</ele><time>2026-04-15T11:50:39.999Z</time></trkpt><trkpt lat="37.49418340697459" lon="14.126790741349879"><ele>538.2857142857142</ele><time>2026-04-15T11:50:45.999Z</time></trkpt><trkpt lat="37.494118513049166" lon="14.12678308383408"><ele>536.8571428571429</ele><time>2026-04-15T11:50:50.999Z</time></trkpt><trkpt lat="37.494123135568906" lon="14.126876298962667"><ele>535.4285714285714</ele><time>2026-04-15T11:50:59.999Z</time></trkpt><trkpt lat="37.494137521792744" lon="14.126977130282567"><ele>534.0</ele><time>2026-04-15T11:51:03.999Z</time></trkpt><trkpt lat="37.494195175618245" lon="14.12704713816766"><ele>534.0</ele><time>2026-04-15T11:51:08.999Z</time></trkpt><trkpt lat="37.494241255893016" lon="14.127112881167388"><ele>534.0</ele><time>2026-04-15T11:51:15Z</time></trkpt><trkpt lat="37.494292267261685" lon="14.127167869652872"><ele>534.0</ele><time>2026-04-15T11:51:21Z</time></trkpt><trkpt lat="37.49437115759445" lon="14.127142011766198"><ele>534.0</ele><time>2026-04-15T11:51:25Z</time></trkpt><trkpt lat="37.49443900097403" lon="14.127105511030242"><ele>534.0</ele><time>2026-04-15T11:51:31Z</time></trkpt><trkpt lat="37.494509070588386" lon="14.127136713168703"><ele>534.0</ele><time>2026-04-15T11:51:36Z</time></trkpt><trkpt lat="37.494560134903956" lon="14.12722840130286"><ele>534.0</ele><time>2026-04-15T11:51:42Z</time></trkpt><trkpt lat="37.49453531406328" lon="14.127320988356695"><ele>534.0</ele><time>2026-04-15T11:51:49Z</time></trkpt><trkpt lat="37.49451472838185" lon="14.127416420197234"><ele>534.0</ele><time>2026-04-15T11:51:54Z</time></trkpt><trkpt lat="37.49449695038131" lon="14.127511902462857"><ele>534.0</ele><time>2026-04-15T11:52:00Z</time></trkpt><trkpt lat="37.49456224158329" lon="14.127591485661446"><ele>534.0</ele><time>2026-04-15T11:52:05Z</time></trkpt><trkpt lat="37.49461369142694" lon="14.12768274301419"><ele>534.0</ele><time>2026-04-15T11:52:11Z</time></trkpt><trkpt lat="37.49464826130466" lon="14.127758576338781"><ele>534.8571428571429</ele><time>2026-04-15T11:52:17Z</time></trkpt><trkpt lat="37.49468316040931" lon="14.127834804154187"><ele>535.7142857142858</ele><time>2026-04-15T11:52:23Z</time></trkpt><trkpt lat="37.49472616523251" lon="14.127903786936212"><ele>536.5714285714286</ele><time>2026-04-15T11:52:28Z</time></trkpt><trkpt lat="37.49475958819379" lon="14.127973964970291"><ele>537.4285714285714</ele><time>2026-04-15T11:52:33Z</time></trkpt><trkpt lat="37.49480743052233" lon="14.128033445053553"><ele>538.2857142857142</ele><time>2026-04-15T11:52:38.999Z</time></trkpt><trkpt lat="37.49487528947895" lon="14.12805630261758"><ele>539.1428571428571</ele><time>2026-04-15T11:52:44.999Z</time></trkpt><trkpt lat="37.49492014256604" lon="14.128124687788054"><ele>540.0</ele><time>2026-04-15T11:52:50.999Z</time></trkpt><trkpt lat="37.49493256146556" lon="14.128223354673393"><ele>538.7142857142857</ele><time>2026-04-15T11:52:56.999Z</time></trkpt><trkpt lat="37.49495973378374" lon="14.12829676791906"><ele>537.4285714285713</ele><time>2026-04-15T11:53:00.999Z</time></trkpt><trkpt lat="37.49498920588783" lon="14.12837605982141"><ele>536.1428571428571</ele><time>2026-04-15T11:53:07Z</time></trkpt><trkpt lat="37.49502266172815" lon="14.128449200004294"><ele>534.8571428571429</ele><time>2026-04-15T11:53:12Z</time></trkpt><trkpt lat="37.495038871488894" lon="14.12853817306425"><ele>533.5714285714287</ele><time>2026-04-15T11:53:17Z</time></trkpt><trkpt lat="37.49502584397931" lon="14.128625089239645"><ele>532.2857142857143</ele><time>2026-04-15T11:53:22Z</time></trkpt><trkpt lat="37.49501340724034" lon="14.128714202599125"><ele>531.0</ele><time>2026-04-15T11:53:26Z</time></trkpt><trkpt lat="37.49501670647994" lon="14.128796729252562"><ele>531.0</ele><time>2026-04-15T11:53:29Z</time></trkpt><trkpt lat="37.49504285763579" lon="14.128872142406548"><ele>531.0</ele><time>2026-04-15T11:53:33Z</time></trkpt><trkpt lat="37.49508553079394" lon="14.128934478524007"><ele>531.0</ele><time>2026-04-15T11:53:37Z</time></trkpt><trkpt lat="37.495121671275655" lon="14.129008864099152"><ele>531.0</ele><time>2026-04-15T11:53:42Z</time></trkpt><trkpt lat="37.495167797233755" lon="14.129078648343317"><ele>531.0</ele><time>2026-04-15T11:53:48Z</time></trkpt><trkpt lat="37.495245266930574" lon="14.129089110122871"><ele>531.0</ele><time>2026-04-15T11:53:55Z</time></trkpt><trkpt lat="37.4953181347509" lon="14.12904882842304"><ele>531.0</ele><time>2026-04-15T11:53:58Z</time></trkpt><trkpt lat="37.495362170706066" lon="14.128976878777324"><ele>531.1428571428571</ele><time>2026-04-15T11:54:02Z</time></trkpt><trkpt lat="37.495428190053275" lon="14.128995292617583"><ele>531.2857142857143</ele><time>2026-04-15T11:54:07Z</time></trkpt><trkpt lat="37.49547065538736" lon="14.129058205148974"><ele>531.4285714285714</ele><time>2026-04-15T11:54:12Z</time></trkpt><trkpt lat="37.49547087544862" lon="14.129145175504759"><ele>531.5714285714286</ele><time>2026-04-15T11:54:18Z</time></trkpt><trkpt lat="37.4954848685379" lon="14.12922384180622"><ele>531.7142857142858</ele><time>2026-04-15T11:54:43Z</time></trkpt><trkpt lat="37.4954574536424" lon="14.129306719603235"><ele>531.8571428571429</ele><time>2026-04-15T11:54:50Z</time></trkpt><trkpt lat="37.49548873057036" lon="14.129385593618812"><ele>532.0</ele><time>2026-04-15T11:54:53Z</time></trkpt><trkpt lat="37.495506869342016" lon="14.129468414032402"><ele>532.0</ele><time>2026-04-15T11:54:59Z</time></trkpt><trkpt lat="37.49553725151079" lon="14.129538255100746"><ele>532.0</ele><time>2026-04-15T11:55:04Z</time></trkpt><trkpt lat="37.49555805084902" lon="14.129620010879885"><ele>532.0</ele><time>2026-04-15T11:55:10Z</time></trkpt></trkseg></trk></gpx>